<?xml version="1.0" encoding="UTF-8" standalone="no" ?>
<gpx xmlns="http://www.topografix.com/GPX/1/1" xmlns:xsi="http://www.w3.org/2001/XMLSchema-instance" xsi:schemaLocation="http://www.topografix.com/GPX/1/1 http://www.topografix.com/GPX/1/1/gpx.xsd" version="1.1" creator="VisuGPX - https://www.visugpx.com">
  <metadata>
    <name>Course à pied dans l'après-midi</name>
  </metadata>
  <trk>
    <name><![CDATA[Course à pied dans l'après-midi_1]]></name>
    <trkseg>
      <trkpt lat="48.72746" lon="7.04524">
        <ele>252.2</ele>
        <time>2023-12-05T16:44:39Z</time>
      </trkpt>
      <trkpt lat="48.72754" lon="7.04499">
        <ele>252.3</ele>
        <time>2023-12-05T16:44:50Z</time>
      </trkpt>
      <trkpt lat="48.72769" lon="7.04476">
        <ele>252.4</ele>
        <time>2023-12-05T16:44:59Z</time>
      </trkpt>
      <trkpt lat="48.72785" lon="7.04457">
        <ele>252.5</ele>
        <time>2023-12-05T16:45:07Z</time>
      </trkpt>
      <trkpt lat="48.7279" lon="7.0445">
        <ele>252.6</ele>
        <time>2023-12-05T16:45:10Z</time>
      </trkpt>
      <trkpt lat="48.72809" lon="7.04459">
        <ele>252.7</ele>
        <time>2023-12-05T16:45:16Z</time>
      </trkpt>
      <trkpt lat="48.72828" lon="7.04468">
        <ele>252.6</ele>
        <time>2023-12-05T16:45:24Z</time>
      </trkpt>
      <trkpt lat="48.72846" lon="7.04481">
        <ele>252.6</ele>
        <time>2023-12-05T16:45:31Z</time>
      </trkpt>
      <trkpt lat="48.72858" lon="7.04502">
        <ele>252.8</ele>
        <time>2023-12-05T16:45:39Z</time>
      </trkpt>
      <trkpt lat="48.72864" lon="7.04529">
        <ele>252.9</ele>
        <time>2023-12-05T16:45:48Z</time>
      </trkpt>
      <trkpt lat="48.72856" lon="7.04555">
        <ele>252.9</ele>
        <time>2023-12-05T16:45:58Z</time>
      </trkpt>
      <trkpt lat="48.72844" lon="7.04577">
        <ele>252.8</ele>
        <time>2023-12-05T16:46:08Z</time>
      </trkpt>
      <trkpt lat="48.72835" lon="7.04601">
        <ele>252.7</ele>
        <time>2023-12-05T16:46:17Z</time>
      </trkpt>
      <trkpt lat="48.72823" lon="7.04623">
        <ele>252.6</ele>
        <time>2023-12-05T16:46:26Z</time>
      </trkpt>
      <trkpt lat="48.7283" lon="7.04632">
        <ele>252.6</ele>
        <time>2023-12-05T16:46:27Z</time>
      </trkpt>
      <trkpt lat="48.72818" lon="7.04653">
        <ele>252.5</ele>
        <time>2023-12-05T16:46:36Z</time>
      </trkpt>
      <trkpt lat="48.7281" lon="7.04679">
        <ele>252.4</ele>
        <time>2023-12-05T16:46:43Z</time>
      </trkpt>
      <trkpt lat="48.72791" lon="7.04686">
        <ele>252.4</ele>
        <time>2023-12-05T16:46:50Z</time>
      </trkpt>
      <trkpt lat="48.72774" lon="7.04686">
        <ele>252.3</ele>
        <time>2023-12-05T16:46:57Z</time>
      </trkpt>
      <trkpt lat="48.72754" lon="7.04676">
        <ele>252.3</ele>
        <time>2023-12-05T16:47:05Z</time>
      </trkpt>
      <trkpt lat="48.72736" lon="7.04663">
        <ele>253.8</ele>
        <time>2023-12-05T16:47:12Z</time>
      </trkpt>
      <trkpt lat="48.72727" lon="7.04642">
        <ele>253.6</ele>
        <time>2023-12-05T16:47:21Z</time>
      </trkpt>
      <trkpt lat="48.72719" lon="7.04618">
        <ele>253.4</ele>
        <time>2023-12-05T16:47:29Z</time>
      </trkpt>
      <trkpt lat="48.72727" lon="7.04592">
        <ele>253.1</ele>
        <time>2023-12-05T16:47:36Z</time>
      </trkpt>
      <trkpt lat="48.7274" lon="7.0457">
        <ele>252.9</ele>
        <time>2023-12-05T16:47:45Z</time>
      </trkpt>
      <trkpt lat="48.72752" lon="7.0455">
        <ele>252.7</ele>
        <time>2023-12-05T16:47:53Z</time>
      </trkpt>
      <trkpt lat="48.72763" lon="7.04528">
        <ele>252.6</ele>
        <time>2023-12-05T16:48:02Z</time>
      </trkpt>
      <trkpt lat="48.72775" lon="7.04507">
        <ele>252.4</ele>
        <time>2023-12-05T16:48:09Z</time>
      </trkpt>
      <trkpt lat="48.72786" lon="7.04483">
        <ele>252.3</ele>
        <time>2023-12-05T16:48:17Z</time>
      </trkpt>
      <trkpt lat="48.72798" lon="7.0446">
        <ele>252.1</ele>
        <time>2023-12-05T16:48:25Z</time>
      </trkpt>
      <trkpt lat="48.728" lon="7.04454">
        <ele>252.1</ele>
        <time>2023-12-05T16:48:26Z</time>
      </trkpt>
      <trkpt lat="48.72801" lon="7.04424">
        <ele>251.6</ele>
        <time>2023-12-05T16:48:36Z</time>
      </trkpt>
      <trkpt lat="48.72801" lon="7.04397">
        <ele>251.1</ele>
        <time>2023-12-05T16:48:43Z</time>
      </trkpt>
      <trkpt lat="48.72798" lon="7.04368">
        <ele>250.5</ele>
        <time>2023-12-05T16:48:50Z</time>
      </trkpt>
      <trkpt lat="48.72805" lon="7.04341">
        <ele>250.4</ele>
        <time>2023-12-05T16:48:58Z</time>
      </trkpt>
      <trkpt lat="48.7282" lon="7.04323">
        <ele>250.4</ele>
        <time>2023-12-05T16:49:06Z</time>
      </trkpt>
      <trkpt lat="48.72834" lon="7.04303">
        <ele>250.3</ele>
        <time>2023-12-05T16:49:15Z</time>
      </trkpt>
      <trkpt lat="48.72848" lon="7.04285">
        <ele>250.3</ele>
        <time>2023-12-05T16:49:23Z</time>
      </trkpt>
      <trkpt lat="48.72852" lon="7.04271">
        <ele>250.3</ele>
        <time>2023-12-05T16:49:28Z</time>
      </trkpt>
      <trkpt lat="48.72838" lon="7.04254">
        <ele>250.2</ele>
        <time>2023-12-05T16:49:35Z</time>
      </trkpt>
      <trkpt lat="48.72825" lon="7.04235">
        <ele>250.3</ele>
        <time>2023-12-05T16:49:43Z</time>
      </trkpt>
      <trkpt lat="48.72815" lon="7.04215">
        <ele>250.3</ele>
        <time>2023-12-05T16:49:51Z</time>
      </trkpt>
      <trkpt lat="48.72816" lon="7.04213">
        <ele>250.3</ele>
        <time>2023-12-05T16:49:53Z</time>
      </trkpt>
      <trkpt lat="48.72822" lon="7.04211">
        <ele>250.3</ele>
        <time>2023-12-05T16:50:00Z</time>
      </trkpt>
      <trkpt lat="48.72825" lon="7.0421">
        <ele>250.3</ele>
        <time>2023-12-05T16:50:02Z</time>
      </trkpt>
      <trkpt lat="48.72842" lon="7.04222">
        <ele>250.3</ele>
        <time>2023-12-05T16:50:11Z</time>
      </trkpt>
      <trkpt lat="48.72855" lon="7.04244">
        <ele>250.2</ele>
        <time>2023-12-05T16:50:19Z</time>
      </trkpt>
      <trkpt lat="48.72863" lon="7.04269">
        <ele>250.3</ele>
        <time>2023-12-05T16:50:27Z</time>
      </trkpt>
      <trkpt lat="48.72867" lon="7.04297">
        <ele>250.3</ele>
        <time>2023-12-05T16:50:35Z</time>
      </trkpt>
      <trkpt lat="48.72877" lon="7.04321">
        <ele>250.2</ele>
        <time>2023-12-05T16:50:44Z</time>
      </trkpt>
      <trkpt lat="48.7289" lon="7.04344">
        <ele>250.1</ele>
        <time>2023-12-05T16:50:54Z</time>
      </trkpt>
      <trkpt lat="48.72906" lon="7.04361">
        <ele>249.9</ele>
        <time>2023-12-05T16:51:02Z</time>
      </trkpt>
      <trkpt lat="48.72924" lon="7.04373">
        <ele>249.8</ele>
        <time>2023-12-05T16:51:11Z</time>
      </trkpt>
      <trkpt lat="48.72942" lon="7.04381">
        <ele>249.7</ele>
        <time>2023-12-05T16:51:19Z</time>
      </trkpt>
      <trkpt lat="48.72957" lon="7.04396">
        <ele>249.6</ele>
        <time>2023-12-05T16:51:26Z</time>
      </trkpt>
      <trkpt lat="48.72971" lon="7.04415">
        <ele>249.5</ele>
        <time>2023-12-05T16:51:34Z</time>
      </trkpt>
      <trkpt lat="48.7298" lon="7.04441">
        <ele>249.2</ele>
        <time>2023-12-05T16:51:42Z</time>
      </trkpt>
      <trkpt lat="48.72986" lon="7.04467">
        <ele>248.9</ele>
        <time>2023-12-05T16:51:50Z</time>
      </trkpt>
      <trkpt lat="48.72998" lon="7.04491">
        <ele>248.6</ele>
        <time>2023-12-05T16:51:57Z</time>
      </trkpt>
      <trkpt lat="48.73013" lon="7.04509">
        <ele>248.3</ele>
        <time>2023-12-05T16:52:05Z</time>
      </trkpt>
      <trkpt lat="48.73029" lon="7.04522">
        <ele>248.2</ele>
        <time>2023-12-05T16:52:13Z</time>
      </trkpt>
      <trkpt lat="48.73045" lon="7.04534">
        <ele>248.2</ele>
        <time>2023-12-05T16:52:20Z</time>
      </trkpt>
      <trkpt lat="48.73059" lon="7.04553">
        <ele>248.3</ele>
        <time>2023-12-05T16:52:27Z</time>
      </trkpt>
      <trkpt lat="48.73071" lon="7.04576">
        <ele>248.2</ele>
        <time>2023-12-05T16:52:34Z</time>
      </trkpt>
      <trkpt lat="48.73079" lon="7.04602">
        <ele>248.2</ele>
        <time>2023-12-05T16:52:42Z</time>
      </trkpt>
      <trkpt lat="48.73085" lon="7.04629">
        <ele>248.2</ele>
        <time>2023-12-05T16:52:51Z</time>
      </trkpt>
      <trkpt lat="48.73091" lon="7.04655">
        <ele>248.2</ele>
        <time>2023-12-05T16:52:59Z</time>
      </trkpt>
      <trkpt lat="48.73099" lon="7.04683">
        <ele>248.1</ele>
        <time>2023-12-05T16:53:07Z</time>
      </trkpt>
      <trkpt lat="48.73109" lon="7.0471">
        <ele>247.8</ele>
        <time>2023-12-05T16:53:15Z</time>
      </trkpt>
      <trkpt lat="48.73118" lon="7.04735">
        <ele>247.7</ele>
        <time>2023-12-05T16:53:24Z</time>
      </trkpt>
      <trkpt lat="48.7313" lon="7.04758">
        <ele>247.6</ele>
        <time>2023-12-05T16:53:33Z</time>
      </trkpt>
      <trkpt lat="48.73144" lon="7.04779">
        <ele>247.5</ele>
        <time>2023-12-05T16:53:41Z</time>
      </trkpt>
      <trkpt lat="48.73159" lon="7.048">
        <ele>247.4</ele>
        <time>2023-12-05T16:53:49Z</time>
      </trkpt>
      <trkpt lat="48.73173" lon="7.04821">
        <ele>247.5</ele>
        <time>2023-12-05T16:53:57Z</time>
      </trkpt>
      <trkpt lat="48.73185" lon="7.04845">
        <ele>247.6</ele>
        <time>2023-12-05T16:54:06Z</time>
      </trkpt>
      <trkpt lat="48.732" lon="7.04861">
        <ele>247.7</ele>
        <time>2023-12-05T16:54:14Z</time>
      </trkpt>
      <trkpt lat="48.73217" lon="7.04867">
        <ele>247.8</ele>
        <time>2023-12-05T16:54:24Z</time>
      </trkpt>
      <trkpt lat="48.73237" lon="7.04863">
        <ele>247.9</ele>
        <time>2023-12-05T16:54:34Z</time>
      </trkpt>
      <trkpt lat="48.73256" lon="7.04866">
        <ele>248</ele>
        <time>2023-12-05T16:54:43Z</time>
      </trkpt>
      <trkpt lat="48.73257" lon="7.04869">
        <ele>248</ele>
        <time>2023-12-05T16:54:44Z</time>
      </trkpt>
      <trkpt lat="48.73265" lon="7.04886">
        <ele>248</ele>
        <time>2023-12-05T16:54:50Z</time>
      </trkpt>
      <trkpt lat="48.73271" lon="7.04883">
        <ele>248</ele>
        <time>2023-12-05T16:54:53Z</time>
      </trkpt>
      <trkpt lat="48.73271" lon="7.04877">
        <ele>248</ele>
        <time>2023-12-05T16:54:55Z</time>
      </trkpt>
      <trkpt lat="48.73269" lon="7.04872">
        <ele>248</ele>
        <time>2023-12-05T16:54:57Z</time>
      </trkpt>
      <trkpt lat="48.73251" lon="7.04865">
        <ele>248</ele>
        <time>2023-12-05T16:55:06Z</time>
      </trkpt>
      <trkpt lat="48.73232" lon="7.04863">
        <ele>247.9</ele>
        <time>2023-12-05T16:55:17Z</time>
      </trkpt>
      <trkpt lat="48.73214" lon="7.04862">
        <ele>247.8</ele>
        <time>2023-12-05T16:55:26Z</time>
      </trkpt>
      <trkpt lat="48.73195" lon="7.04854">
        <ele>247.7</ele>
        <time>2023-12-05T16:55:33Z</time>
      </trkpt>
      <trkpt lat="48.73177" lon="7.04837">
        <ele>247.6</ele>
        <time>2023-12-05T16:55:41Z</time>
      </trkpt>
      <trkpt lat="48.73164" lon="7.04817">
        <ele>247.5</ele>
        <time>2023-12-05T16:55:49Z</time>
      </trkpt>
      <trkpt lat="48.73151" lon="7.04796">
        <ele>247.4</ele>
        <time>2023-12-05T16:55:57Z</time>
      </trkpt>
      <trkpt lat="48.73138" lon="7.04776">
        <ele>247.5</ele>
        <time>2023-12-05T16:56:07Z</time>
      </trkpt>
      <trkpt lat="48.73125" lon="7.04756">
        <ele>247.6</ele>
        <time>2023-12-05T16:56:15Z</time>
      </trkpt>
      <trkpt lat="48.73113" lon="7.04735">
        <ele>247.7</ele>
        <time>2023-12-05T16:56:23Z</time>
      </trkpt>
      <trkpt lat="48.73104" lon="7.04711">
        <ele>247.9</ele>
        <time>2023-12-05T16:56:32Z</time>
      </trkpt>
      <trkpt lat="48.73097" lon="7.04685">
        <ele>248.1</ele>
        <time>2023-12-05T16:56:41Z</time>
      </trkpt>
      <trkpt lat="48.7309" lon="7.0466">
        <ele>248.2</ele>
        <time>2023-12-05T16:56:49Z</time>
      </trkpt>
      <trkpt lat="48.73081" lon="7.04633">
        <ele>248.2</ele>
        <time>2023-12-05T16:56:58Z</time>
      </trkpt>
      <trkpt lat="48.73072" lon="7.04608">
        <ele>248.2</ele>
        <time>2023-12-05T16:57:07Z</time>
      </trkpt>
      <trkpt lat="48.73063" lon="7.04583">
        <ele>248.2</ele>
        <time>2023-12-05T16:57:15Z</time>
      </trkpt>
      <trkpt lat="48.73054" lon="7.04557">
        <ele>248.3</ele>
        <time>2023-12-05T16:57:23Z</time>
      </trkpt>
      <trkpt lat="48.73039" lon="7.04539">
        <ele>248.2</ele>
        <time>2023-12-05T16:57:31Z</time>
      </trkpt>
      <trkpt lat="48.73022" lon="7.04525">
        <ele>248.2</ele>
        <time>2023-12-05T16:57:39Z</time>
      </trkpt>
      <trkpt lat="48.73004" lon="7.04513">
        <ele>248.4</ele>
        <time>2023-12-05T16:57:47Z</time>
      </trkpt>
      <trkpt lat="48.72988" lon="7.04496">
        <ele>248.6</ele>
        <time>2023-12-05T16:57:55Z</time>
      </trkpt>
      <trkpt lat="48.72979" lon="7.04472">
        <ele>249</ele>
        <time>2023-12-05T16:58:03Z</time>
      </trkpt>
      <trkpt lat="48.72962" lon="7.04481">
        <ele>248.9</ele>
        <time>2023-12-05T16:58:13Z</time>
      </trkpt>
      <trkpt lat="48.72945" lon="7.04497">
        <ele>248.8</ele>
        <time>2023-12-05T16:58:24Z</time>
      </trkpt>
      <trkpt lat="48.72928" lon="7.04511">
        <ele>248.8</ele>
        <time>2023-12-05T16:58:32Z</time>
      </trkpt>
      <trkpt lat="48.72912" lon="7.04525">
        <ele>248.8</ele>
        <time>2023-12-05T16:58:39Z</time>
      </trkpt>
      <trkpt lat="48.72898" lon="7.04545">
        <ele>248.8</ele>
        <time>2023-12-05T16:58:50Z</time>
      </trkpt>
      <trkpt lat="48.72885" lon="7.04565">
        <ele>249.2</ele>
        <time>2023-12-05T16:58:56Z</time>
      </trkpt>
      <trkpt lat="48.7287" lon="7.04583">
        <ele>250.4</ele>
        <time>2023-12-05T16:59:04Z</time>
      </trkpt>
      <trkpt lat="48.72852" lon="7.04595">
        <ele>251.9</ele>
        <time>2023-12-05T16:59:13Z</time>
      </trkpt>
      <trkpt lat="48.72837" lon="7.04615">
        <ele>252.4</ele>
        <time>2023-12-05T16:59:21Z</time>
      </trkpt>
      <trkpt lat="48.72825" lon="7.04637">
        <ele>252.6</ele>
        <time>2023-12-05T16:59:29Z</time>
      </trkpt>
      <trkpt lat="48.72813" lon="7.04662">
        <ele>252.8</ele>
        <time>2023-12-05T16:59:39Z</time>
      </trkpt>
      <trkpt lat="48.72805" lon="7.04689">
        <ele>253.2</ele>
        <time>2023-12-05T16:59:48Z</time>
      </trkpt>
      <trkpt lat="48.72794" lon="7.04714">
        <ele>253.8</ele>
        <time>2023-12-05T16:59:56Z</time>
      </trkpt>
      <trkpt lat="48.72784" lon="7.04738">
        <ele>254.7</ele>
        <time>2023-12-05T17:00:05Z</time>
      </trkpt>
      <trkpt lat="48.72776" lon="7.04744">
        <ele>254.7</ele>
        <time>2023-12-05T17:00:12Z</time>
      </trkpt>
      <trkpt lat="48.72774" lon="7.04741">
        <ele>254.6</ele>
        <time>2023-12-05T17:00:15Z</time>
      </trkpt>
      <trkpt lat="48.72766" lon="7.04716">
        <ele>254.3</ele>
        <time>2023-12-05T17:00:25Z</time>
      </trkpt>
      <trkpt lat="48.72754" lon="7.04692">
        <ele>254</ele>
        <time>2023-12-05T17:00:34Z</time>
      </trkpt>
      <trkpt lat="48.72742" lon="7.04671">
        <ele>253.8</ele>
        <time>2023-12-05T17:00:43Z</time>
      </trkpt>
      <trkpt lat="48.72731" lon="7.04647">
        <ele>253.7</ele>
        <time>2023-12-05T17:00:53Z</time>
      </trkpt>
      <trkpt lat="48.72721" lon="7.04623">
        <ele>253.4</ele>
        <time>2023-12-05T17:01:02Z</time>
      </trkpt>
      <trkpt lat="48.72728" lon="7.04599">
        <ele>252.2</ele>
        <time>2023-12-05T17:01:10Z</time>
      </trkpt>
      <trkpt lat="48.72741" lon="7.04575">
        <ele>252.2</ele>
        <time>2023-12-05T17:01:19Z</time>
      </trkpt>
      <trkpt lat="48.72752" lon="7.04551">
        <ele>252.2</ele>
        <time>2023-12-05T17:01:27Z</time>
      </trkpt>
      <trkpt lat="48.72759" lon="7.04538">
        <ele>252.2</ele>
        <time>2023-12-05T17:01:33Z</time>
      </trkpt>
      <trkpt lat="48.72758" lon="7.04546">
        <ele>252.2</ele>
        <time>2023-12-05T17:05:07Z</time>
      </trkpt>
      <trkpt lat="48.72749" lon="7.04571">
        <ele>252.2</ele>
        <time>2023-12-05T17:05:25Z</time>
      </trkpt>
      <trkpt lat="48.72738" lon="7.04593">
        <ele>252.2</ele>
        <time>2023-12-05T17:05:39Z</time>
      </trkpt>
      <trkpt lat="48.72728" lon="7.04616">
        <ele>252.2</ele>
        <time>2023-12-05T17:05:49Z</time>
      </trkpt>
      <trkpt lat="48.72731" lon="7.04615">
        <ele>252.2</ele>
        <time>2023-12-05T17:05:51Z</time>
      </trkpt>
      <trkpt lat="48.72741" lon="7.04592">
        <ele>252.2</ele>
        <time>2023-12-05T17:06:03Z</time>
      </trkpt>
      <trkpt lat="48.72752" lon="7.04568">
        <ele>252.2</ele>
        <time>2023-12-05T17:06:18Z</time>
      </trkpt>
      <trkpt lat="48.72761" lon="7.04547">
        <ele>252.2</ele>
        <time>2023-12-05T17:06:28Z</time>
      </trkpt>
      <trkpt lat="48.72761" lon="7.04542">
        <ele>252.2</ele>
        <time>2023-12-05T17:07:26Z</time>
      </trkpt>
      <trkpt lat="48.7276" lon="7.04544">
        <ele>252.2</ele>
        <time>2023-12-05T17:07:28Z</time>
      </trkpt>
      <trkpt lat="48.72751" lon="7.04568">
        <ele>252.2</ele>
        <time>2023-12-05T17:07:42Z</time>
      </trkpt>
      <trkpt lat="48.72741" lon="7.04593">
        <ele>252.2</ele>
        <time>2023-12-05T17:07:52Z</time>
      </trkpt>
      <trkpt lat="48.72733" lon="7.04614">
        <ele>252.2</ele>
        <time>2023-12-05T17:08:03Z</time>
      </trkpt>
      <trkpt lat="48.72735" lon="7.0461">
        <ele>252.2</ele>
        <time>2023-12-05T17:08:06Z</time>
      </trkpt>
      <trkpt lat="48.72738" lon="7.04605">
        <ele>252.2</ele>
        <time>2023-12-05T17:08:10Z</time>
      </trkpt>
      <trkpt lat="48.72749" lon="7.04583">
        <ele>252.2</ele>
        <time>2023-12-05T17:08:24Z</time>
      </trkpt>
      <trkpt lat="48.72757" lon="7.04558">
        <ele>252.2</ele>
        <time>2023-12-05T17:08:40Z</time>
      </trkpt>
      <trkpt lat="48.72766" lon="7.04536">
        <ele>252.2</ele>
        <time>2023-12-05T17:08:53Z</time>
      </trkpt>
      <trkpt lat="48.72766" lon="7.04538">
        <ele>252.2</ele>
        <time>2023-12-05T17:08:54Z</time>
      </trkpt>
      <trkpt lat="48.72754" lon="7.0456">
        <ele>252.2</ele>
        <time>2023-12-05T17:09:01Z</time>
      </trkpt>
      <trkpt lat="48.72745" lon="7.04585">
        <ele>252.2</ele>
        <time>2023-12-05T17:09:08Z</time>
      </trkpt>
      <trkpt lat="48.72733" lon="7.04609">
        <ele>252.2</ele>
        <time>2023-12-05T17:09:15Z</time>
      </trkpt>
      <trkpt lat="48.7273" lon="7.04615">
        <ele>252.2</ele>
        <time>2023-12-05T17:09:17Z</time>
      </trkpt>
      <trkpt lat="48.72735" lon="7.04602">
        <ele>252.2</ele>
        <time>2023-12-05T17:09:26Z</time>
      </trkpt>
      <trkpt lat="48.72745" lon="7.04578">
        <ele>252.2</ele>
        <time>2023-12-05T17:09:34Z</time>
      </trkpt>
      <trkpt lat="48.72757" lon="7.04556">
        <ele>252.2</ele>
        <time>2023-12-05T17:09:42Z</time>
      </trkpt>
      <trkpt lat="48.72767" lon="7.04534">
        <ele>252.2</ele>
        <time>2023-12-05T17:09:49Z</time>
      </trkpt>
      <trkpt lat="48.72767" lon="7.04533">
        <ele>252.2</ele>
        <time>2023-12-05T17:09:50Z</time>
      </trkpt>
      <trkpt lat="48.72767" lon="7.04535">
        <ele>252.2</ele>
        <time>2023-12-05T17:09:52Z</time>
      </trkpt>
      <trkpt lat="48.72758" lon="7.0456">
        <ele>252.2</ele>
        <time>2023-12-05T17:10:03Z</time>
      </trkpt>
      <trkpt lat="48.72749" lon="7.04584">
        <ele>252.2</ele>
        <time>2023-12-05T17:10:13Z</time>
      </trkpt>
      <trkpt lat="48.72738" lon="7.04608">
        <ele>252.2</ele>
        <time>2023-12-05T17:10:26Z</time>
      </trkpt>
      <trkpt lat="48.72735" lon="7.04619">
        <ele>252.2</ele>
        <time>2023-12-05T17:10:31Z</time>
      </trkpt>
      <trkpt lat="48.72741" lon="7.04593">
        <ele>252.2</ele>
        <time>2023-12-05T17:10:46Z</time>
      </trkpt>
      <trkpt lat="48.72751" lon="7.04567">
        <ele>252.2</ele>
        <time>2023-12-05T17:10:58Z</time>
      </trkpt>
      <trkpt lat="48.72761" lon="7.04543">
        <ele>252.2</ele>
        <time>2023-12-05T17:11:09Z</time>
      </trkpt>
      <trkpt lat="48.72768" lon="7.04532">
        <ele>252.2</ele>
        <time>2023-12-05T17:11:17Z</time>
      </trkpt>
      <trkpt lat="48.72767" lon="7.04533">
        <ele>252.2</ele>
        <time>2023-12-05T17:11:19Z</time>
      </trkpt>
      <trkpt lat="48.72767" lon="7.04534">
        <ele>252.2</ele>
        <time>2023-12-05T17:11:40Z</time>
      </trkpt>
      <trkpt lat="48.72755" lon="7.04563">
        <ele>252.2</ele>
        <time>2023-12-05T17:11:48Z</time>
      </trkpt>
      <trkpt lat="48.72744" lon="7.04592">
        <ele>252.2</ele>
        <time>2023-12-05T17:11:52Z</time>
      </trkpt>
      <trkpt lat="48.72742" lon="7.046">
        <ele>252.2</ele>
        <time>2023-12-05T17:11:53Z</time>
      </trkpt>
      <trkpt lat="48.7274" lon="7.04627">
        <ele>252.2</ele>
        <time>2023-12-05T17:11:56Z</time>
      </trkpt>
      <trkpt lat="48.72744" lon="7.04644">
        <ele>252.2</ele>
        <time>2023-12-05T17:11:58Z</time>
      </trkpt>
      <trkpt lat="48.72755" lon="7.04661">
        <ele>252.2</ele>
        <time>2023-12-05T17:12:01Z</time>
      </trkpt>
      <trkpt lat="48.72764" lon="7.04671">
        <ele>252.3</ele>
        <time>2023-12-05T17:12:08Z</time>
      </trkpt>
      <trkpt lat="48.72762" lon="7.0467">
        <ele>252.3</ele>
        <time>2023-12-05T17:12:10Z</time>
      </trkpt>
      <trkpt lat="48.7276" lon="7.04667">
        <ele>252.3</ele>
        <time>2023-12-05T17:12:12Z</time>
      </trkpt>
      <trkpt lat="48.72746" lon="7.04649">
        <ele>252.2</ele>
        <time>2023-12-05T17:12:21Z</time>
      </trkpt>
      <trkpt lat="48.72737" lon="7.0462">
        <ele>252.2</ele>
        <time>2023-12-05T17:12:26Z</time>
      </trkpt>
      <trkpt lat="48.72737" lon="7.04612">
        <ele>252.2</ele>
        <time>2023-12-05T17:12:27Z</time>
      </trkpt>
      <trkpt lat="48.72738" lon="7.04598">
        <ele>252.2</ele>
        <time>2023-12-05T17:12:29Z</time>
      </trkpt>
      <trkpt lat="48.72749" lon="7.04569">
        <ele>252.2</ele>
        <time>2023-12-05T17:12:33Z</time>
      </trkpt>
      <trkpt lat="48.72762" lon="7.04542">
        <ele>252.2</ele>
        <time>2023-12-05T17:12:37Z</time>
      </trkpt>
      <trkpt lat="48.7277" lon="7.0453">
        <ele>252.2</ele>
        <time>2023-12-05T17:12:44Z</time>
      </trkpt>
      <trkpt lat="48.72763" lon="7.04537">
        <ele>252.2</ele>
        <time>2023-12-05T17:12:48Z</time>
      </trkpt>
      <trkpt lat="48.7275" lon="7.04585">
        <ele>252.2</ele>
        <time>2023-12-05T17:16:30Z</time>
      </trkpt>
      <trkpt lat="48.7275" lon="7.04585">
        <ele>252.2</ele>
        <time>2023-12-05T17:16:34Z</time>
      </trkpt>
      <trkpt lat="48.7275" lon="7.04583">
        <ele>252.2</ele>
        <time>2023-12-05T17:16:43Z</time>
      </trkpt>
      <trkpt lat="48.7275" lon="7.04583">
        <ele>252.2</ele>
        <time>2023-12-05T17:16:45Z</time>
      </trkpt>
      <trkpt lat="48.72744" lon="7.04609">
        <ele>252.2</ele>
        <time>2023-12-05T17:16:51Z</time>
      </trkpt>
      <trkpt lat="48.72746" lon="7.0463">
        <ele>252.2</ele>
        <time>2023-12-05T17:16:54Z</time>
      </trkpt>
      <trkpt lat="48.72758" lon="7.04657">
        <ele>252.2</ele>
        <time>2023-12-05T17:16:59Z</time>
      </trkpt>
      <trkpt lat="48.72777" lon="7.04672">
        <ele>252.3</ele>
        <time>2023-12-05T17:17:04Z</time>
      </trkpt>
      <trkpt lat="48.72799" lon="7.04669">
        <ele>252.4</ele>
        <time>2023-12-05T17:17:09Z</time>
      </trkpt>
      <trkpt lat="48.72814" lon="7.04649">
        <ele>252.5</ele>
        <time>2023-12-05T17:17:14Z</time>
      </trkpt>
      <trkpt lat="48.72826" lon="7.04623">
        <ele>252.6</ele>
        <time>2023-12-05T17:17:19Z</time>
      </trkpt>
      <trkpt lat="48.72837" lon="7.04597">
        <ele>252.7</ele>
        <time>2023-12-05T17:17:24Z</time>
      </trkpt>
      <trkpt lat="48.72849" lon="7.04571">
        <ele>252.8</ele>
        <time>2023-12-05T17:17:29Z</time>
      </trkpt>
      <trkpt lat="48.72859" lon="7.04544">
        <ele>252.9</ele>
        <time>2023-12-05T17:17:34Z</time>
      </trkpt>
      <trkpt lat="48.72857" lon="7.04511">
        <ele>252.8</ele>
        <time>2023-12-05T17:17:39Z</time>
      </trkpt>
      <trkpt lat="48.72844" lon="7.04485">
        <ele>252.6</ele>
        <time>2023-12-05T17:17:44Z</time>
      </trkpt>
      <trkpt lat="48.72824" lon="7.04472">
        <ele>252.7</ele>
        <time>2023-12-05T17:17:49Z</time>
      </trkpt>
      <trkpt lat="48.72819" lon="7.04472">
        <ele>252.7</ele>
        <time>2023-12-05T17:17:50Z</time>
      </trkpt>
      <trkpt lat="48.72811" lon="7.04473">
        <ele>252.7</ele>
        <time>2023-12-05T17:17:52Z</time>
      </trkpt>
      <trkpt lat="48.728" lon="7.0448">
        <ele>252.6</ele>
        <time>2023-12-05T17:17:55Z</time>
      </trkpt>
      <trkpt lat="48.7279" lon="7.04495">
        <ele>252.5</ele>
        <time>2023-12-05T17:17:58Z</time>
      </trkpt>
      <trkpt lat="48.72777" lon="7.0452">
        <ele>252.4</ele>
        <time>2023-12-05T17:18:03Z</time>
      </trkpt>
      <trkpt lat="48.72764" lon="7.04544">
        <ele>252.2</ele>
        <time>2023-12-05T17:18:08Z</time>
      </trkpt>
      <trkpt lat="48.72752" lon="7.04568">
        <ele>252.2</ele>
        <time>2023-12-05T17:18:13Z</time>
      </trkpt>
      <trkpt lat="48.72743" lon="7.04588">
        <ele>252.2</ele>
        <time>2023-12-05T17:18:17Z</time>
      </trkpt>
      <trkpt lat="48.7274" lon="7.04601">
        <ele>252.2</ele>
        <time>2023-12-05T17:18:19Z</time>
      </trkpt>
      <trkpt lat="48.72738" lon="7.04614">
        <ele>252.2</ele>
        <time>2023-12-05T17:18:21Z</time>
      </trkpt>
      <trkpt lat="48.72741" lon="7.04633">
        <ele>252.2</ele>
        <time>2023-12-05T17:18:24Z</time>
      </trkpt>
      <trkpt lat="48.72746" lon="7.04644">
        <ele>252.2</ele>
        <time>2023-12-05T17:18:26Z</time>
      </trkpt>
      <trkpt lat="48.72755" lon="7.04657">
        <ele>252.2</ele>
        <time>2023-12-05T17:18:29Z</time>
      </trkpt>
      <trkpt lat="48.72765" lon="7.04667">
        <ele>252.3</ele>
        <time>2023-12-05T17:18:32Z</time>
      </trkpt>
      <trkpt lat="48.72773" lon="7.0467">
        <ele>252.3</ele>
        <time>2023-12-05T17:18:34Z</time>
      </trkpt>
      <trkpt lat="48.72782" lon="7.0467">
        <ele>252.4</ele>
        <time>2023-12-05T17:18:36Z</time>
      </trkpt>
      <trkpt lat="48.72796" lon="7.04666">
        <ele>252.4</ele>
        <time>2023-12-05T17:18:39Z</time>
      </trkpt>
      <trkpt lat="48.72804" lon="7.0466">
        <ele>252.4</ele>
        <time>2023-12-05T17:18:41Z</time>
      </trkpt>
      <trkpt lat="48.7281" lon="7.04651">
        <ele>252.4</ele>
        <time>2023-12-05T17:18:43Z</time>
      </trkpt>
      <trkpt lat="48.72823" lon="7.04627">
        <ele>252.6</ele>
        <time>2023-12-05T17:18:48Z</time>
      </trkpt>
      <trkpt lat="48.72836" lon="7.04603">
        <ele>252.7</ele>
        <time>2023-12-05T17:18:53Z</time>
      </trkpt>
      <trkpt lat="48.72848" lon="7.04577">
        <ele>252.8</ele>
        <time>2023-12-05T17:18:58Z</time>
      </trkpt>
      <trkpt lat="48.72859" lon="7.0455">
        <ele>252.9</ele>
        <time>2023-12-05T17:19:03Z</time>
      </trkpt>
      <trkpt lat="48.72861" lon="7.04537">
        <ele>252.9</ele>
        <time>2023-12-05T17:19:05Z</time>
      </trkpt>
      <trkpt lat="48.72861" lon="7.04523">
        <ele>252.8</ele>
        <time>2023-12-05T17:19:07Z</time>
      </trkpt>
      <trkpt lat="48.72856" lon="7.04504">
        <ele>252.8</ele>
        <time>2023-12-05T17:19:10Z</time>
      </trkpt>
      <trkpt lat="48.72851" lon="7.04495">
        <ele>252.7</ele>
        <time>2023-12-05T17:19:12Z</time>
      </trkpt>
      <trkpt lat="48.72844" lon="7.04486">
        <ele>252.6</ele>
        <time>2023-12-05T17:19:14Z</time>
      </trkpt>
      <trkpt lat="48.72832" lon="7.04477">
        <ele>252.6</ele>
        <time>2023-12-05T17:19:17Z</time>
      </trkpt>
      <trkpt lat="48.72823" lon="7.04474">
        <ele>252.7</ele>
        <time>2023-12-05T17:19:19Z</time>
      </trkpt>
      <trkpt lat="48.72816" lon="7.04472">
        <ele>252.7</ele>
        <time>2023-12-05T17:19:21Z</time>
      </trkpt>
      <trkpt lat="48.72809" lon="7.04474">
        <ele>252.6</ele>
        <time>2023-12-05T17:19:23Z</time>
      </trkpt>
      <trkpt lat="48.72802" lon="7.04479">
        <ele>252.6</ele>
        <time>2023-12-05T17:19:25Z</time>
      </trkpt>
      <trkpt lat="48.72796" lon="7.04487">
        <ele>252.5</ele>
        <time>2023-12-05T17:19:27Z</time>
      </trkpt>
      <trkpt lat="48.72782" lon="7.04514">
        <ele>252.4</ele>
        <time>2023-12-05T17:19:32Z</time>
      </trkpt>
      <trkpt lat="48.72771" lon="7.04536">
        <ele>252.3</ele>
        <time>2023-12-05T17:19:36Z</time>
      </trkpt>
      <trkpt lat="48.72758" lon="7.04563">
        <ele>252.2</ele>
        <time>2023-12-05T17:19:41Z</time>
      </trkpt>
      <trkpt lat="48.72745" lon="7.0459">
        <ele>252.2</ele>
        <time>2023-12-05T17:19:46Z</time>
      </trkpt>
      <trkpt lat="48.72741" lon="7.04603">
        <ele>252.2</ele>
        <time>2023-12-05T17:19:48Z</time>
      </trkpt>
      <trkpt lat="48.72739" lon="7.04624">
        <ele>252.2</ele>
        <time>2023-12-05T17:19:51Z</time>
      </trkpt>
      <trkpt lat="48.72742" lon="7.04637">
        <ele>252.2</ele>
        <time>2023-12-05T17:19:53Z</time>
      </trkpt>
      <trkpt lat="48.7275" lon="7.04652">
        <ele>252.2</ele>
        <time>2023-12-05T17:19:56Z</time>
      </trkpt>
      <trkpt lat="48.72756" lon="7.04661">
        <ele>252.2</ele>
        <time>2023-12-05T17:19:58Z</time>
      </trkpt>
      <trkpt lat="48.72768" lon="7.04671">
        <ele>252.3</ele>
        <time>2023-12-05T17:20:01Z</time>
      </trkpt>
      <trkpt lat="48.72781" lon="7.04675">
        <ele>252.4</ele>
        <time>2023-12-05T17:20:04Z</time>
      </trkpt>
      <trkpt lat="48.72794" lon="7.04673">
        <ele>252.4</ele>
        <time>2023-12-05T17:20:07Z</time>
      </trkpt>
      <trkpt lat="48.72806" lon="7.04663">
        <ele>252.4</ele>
        <time>2023-12-05T17:20:10Z</time>
      </trkpt>
      <trkpt lat="48.72812" lon="7.04653">
        <ele>252.5</ele>
        <time>2023-12-05T17:20:12Z</time>
      </trkpt>
      <trkpt lat="48.72824" lon="7.04632">
        <ele>252.6</ele>
        <time>2023-12-05T17:20:16Z</time>
      </trkpt>
      <trkpt lat="48.72826" lon="7.04626">
        <ele>252.6</ele>
        <time>2023-12-05T17:20:17Z</time>
      </trkpt>
      <trkpt lat="48.72838" lon="7.04605">
        <ele>252.7</ele>
        <time>2023-12-05T17:20:21Z</time>
      </trkpt>
      <trkpt lat="48.7285" lon="7.04577">
        <ele>252.8</ele>
        <time>2023-12-05T17:20:26Z</time>
      </trkpt>
      <trkpt lat="48.7286" lon="7.04556">
        <ele>252.9</ele>
        <time>2023-12-05T17:20:30Z</time>
      </trkpt>
      <trkpt lat="48.72862" lon="7.04544">
        <ele>252.9</ele>
        <time>2023-12-05T17:20:32Z</time>
      </trkpt>
      <trkpt lat="48.72862" lon="7.04531">
        <ele>252.8</ele>
        <time>2023-12-05T17:20:34Z</time>
      </trkpt>
      <trkpt lat="48.72857" lon="7.04513">
        <ele>252.8</ele>
        <time>2023-12-05T17:20:37Z</time>
      </trkpt>
      <trkpt lat="48.72851" lon="7.04497">
        <ele>252.7</ele>
        <time>2023-12-05T17:20:40Z</time>
      </trkpt>
      <trkpt lat="48.7284" lon="7.04484">
        <ele>252.6</ele>
        <time>2023-12-05T17:20:43Z</time>
      </trkpt>
      <trkpt lat="48.72828" lon="7.04477">
        <ele>252.7</ele>
        <time>2023-12-05T17:20:46Z</time>
      </trkpt>
      <trkpt lat="48.72815" lon="7.04476">
        <ele>252.7</ele>
        <time>2023-12-05T17:20:49Z</time>
      </trkpt>
      <trkpt lat="48.72807" lon="7.04479">
        <ele>252.6</ele>
        <time>2023-12-05T17:20:51Z</time>
      </trkpt>
      <trkpt lat="48.728" lon="7.04485">
        <ele>252.6</ele>
        <time>2023-12-05T17:20:53Z</time>
      </trkpt>
      <trkpt lat="48.72794" lon="7.04495">
        <ele>252.5</ele>
        <time>2023-12-05T17:20:55Z</time>
      </trkpt>
      <trkpt lat="48.72783" lon="7.04516">
        <ele>252.4</ele>
        <time>2023-12-05T17:20:59Z</time>
      </trkpt>
      <trkpt lat="48.72769" lon="7.04544">
        <ele>252.2</ele>
        <time>2023-12-05T17:21:04Z</time>
      </trkpt>
      <trkpt lat="48.72757" lon="7.04565">
        <ele>252.2</ele>
        <time>2023-12-05T17:21:08Z</time>
      </trkpt>
      <trkpt lat="48.72746" lon="7.04588">
        <ele>252.2</ele>
        <time>2023-12-05T17:21:12Z</time>
      </trkpt>
      <trkpt lat="48.72743" lon="7.04593">
        <ele>252.2</ele>
        <time>2023-12-05T17:21:13Z</time>
      </trkpt>
      <trkpt lat="48.7274" lon="7.04606">
        <ele>252.2</ele>
        <time>2023-12-05T17:21:15Z</time>
      </trkpt>
      <trkpt lat="48.72739" lon="7.04626">
        <ele>252.2</ele>
        <time>2023-12-05T17:21:18Z</time>
      </trkpt>
      <trkpt lat="48.72742" lon="7.04639">
        <ele>252.2</ele>
        <time>2023-12-05T17:21:20Z</time>
      </trkpt>
      <trkpt lat="48.72755" lon="7.04659">
        <ele>252.2</ele>
        <time>2023-12-05T17:21:24Z</time>
      </trkpt>
      <trkpt lat="48.72767" lon="7.04669">
        <ele>252.3</ele>
        <time>2023-12-05T17:21:27Z</time>
      </trkpt>
      <trkpt lat="48.72775" lon="7.04674">
        <ele>252.3</ele>
        <time>2023-12-05T17:21:29Z</time>
      </trkpt>
      <trkpt lat="48.72783" lon="7.04675">
        <ele>252.4</ele>
        <time>2023-12-05T17:21:31Z</time>
      </trkpt>
      <trkpt lat="48.72793" lon="7.04674">
        <ele>252.4</ele>
        <time>2023-12-05T17:21:33Z</time>
      </trkpt>
      <trkpt lat="48.72805" lon="7.04666">
        <ele>252.4</ele>
        <time>2023-12-05T17:21:36Z</time>
      </trkpt>
      <trkpt lat="48.72812" lon="7.04656">
        <ele>252.4</ele>
        <time>2023-12-05T17:21:38Z</time>
      </trkpt>
      <trkpt lat="48.72824" lon="7.04635">
        <ele>252.6</ele>
        <time>2023-12-05T17:21:42Z</time>
      </trkpt>
      <trkpt lat="48.72837" lon="7.04609">
        <ele>252.7</ele>
        <time>2023-12-05T17:21:47Z</time>
      </trkpt>
      <trkpt lat="48.7285" lon="7.04581">
        <ele>252.8</ele>
        <time>2023-12-05T17:21:52Z</time>
      </trkpt>
      <trkpt lat="48.72858" lon="7.04565">
        <ele>252.9</ele>
        <time>2023-12-05T17:21:55Z</time>
      </trkpt>
      <trkpt lat="48.72863" lon="7.04547">
        <ele>252.9</ele>
        <time>2023-12-05T17:21:58Z</time>
      </trkpt>
      <trkpt lat="48.72863" lon="7.04532">
        <ele>252.9</ele>
        <time>2023-12-05T17:22:00Z</time>
      </trkpt>
      <trkpt lat="48.72859" lon="7.04511">
        <ele>252.8</ele>
        <time>2023-12-05T17:22:03Z</time>
      </trkpt>
      <trkpt lat="48.72854" lon="7.045">
        <ele>252.8</ele>
        <time>2023-12-05T17:22:05Z</time>
      </trkpt>
      <trkpt lat="48.72847" lon="7.0449">
        <ele>252.8</ele>
        <time>2023-12-05T17:22:07Z</time>
      </trkpt>
      <trkpt lat="48.72835" lon="7.0448">
        <ele>252.7</ele>
        <time>2023-12-05T17:22:10Z</time>
      </trkpt>
      <trkpt lat="48.72826" lon="7.04478">
        <ele>252.6</ele>
        <time>2023-12-05T17:22:12Z</time>
      </trkpt>
      <trkpt lat="48.72809" lon="7.0448">
        <ele>252.6</ele>
        <time>2023-12-05T17:22:16Z</time>
      </trkpt>
      <trkpt lat="48.72803" lon="7.04485">
        <ele>252.6</ele>
        <time>2023-12-05T17:22:18Z</time>
      </trkpt>
      <trkpt lat="48.72794" lon="7.04501">
        <ele>252.7</ele>
        <time>2023-12-05T17:22:21Z</time>
      </trkpt>
      <trkpt lat="48.72781" lon="7.04524">
        <ele>252.6</ele>
        <time>2023-12-05T17:22:25Z</time>
      </trkpt>
      <trkpt lat="48.72769" lon="7.04548">
        <ele>252.5</ele>
        <time>2023-12-05T17:22:29Z</time>
      </trkpt>
      <trkpt lat="48.72756" lon="7.04571">
        <ele>252.5</ele>
        <time>2023-12-05T17:22:33Z</time>
      </trkpt>
      <trkpt lat="48.72749" lon="7.04582">
        <ele>252.4</ele>
        <time>2023-12-05T17:22:35Z</time>
      </trkpt>
      <trkpt lat="48.72746" lon="7.04588">
        <ele>252.4</ele>
        <time>2023-12-05T17:22:36Z</time>
      </trkpt>
      <trkpt lat="48.72739" lon="7.04601">
        <ele>252.3</ele>
        <time>2023-12-05T17:22:39Z</time>
      </trkpt>
      <trkpt lat="48.72731" lon="7.04611">
        <ele>252.3</ele>
        <time>2023-12-05T17:22:44Z</time>
      </trkpt>
      <trkpt lat="48.72732" lon="7.04615">
        <ele>252.3</ele>
        <time>2023-12-05T17:22:46Z</time>
      </trkpt>
      <trkpt lat="48.72739" lon="7.04624">
        <ele>252.2</ele>
        <time>2023-12-05T17:22:51Z</time>
      </trkpt>
      <trkpt lat="48.72742" lon="7.04598">
        <ele>252.2</ele>
        <time>2023-12-05T17:23:01Z</time>
      </trkpt>
      <trkpt lat="48.72744" lon="7.04587">
        <ele>252.2</ele>
        <time>2023-12-05T17:23:05Z</time>
      </trkpt>
      <trkpt lat="48.72754" lon="7.04568">
        <ele>252.2</ele>
        <time>2023-12-05T17:23:17Z</time>
      </trkpt>
      <trkpt lat="48.72751" lon="7.04571">
        <ele>252.2</ele>
        <time>2023-12-05T17:23:19Z</time>
      </trkpt>
      <trkpt lat="48.72748" lon="7.04575">
        <ele>252.2</ele>
        <time>2023-12-05T17:23:22Z</time>
      </trkpt>
      <trkpt lat="48.72746" lon="7.04579">
        <ele>252.2</ele>
        <time>2023-12-05T17:23:25Z</time>
      </trkpt>
      <trkpt lat="48.72747" lon="7.04586">
        <ele>252.2</ele>
        <time>2023-12-05T17:23:40Z</time>
      </trkpt>
      <trkpt lat="48.72741" lon="7.04615">
        <ele>252.2</ele>
        <time>2023-12-05T17:23:46Z</time>
      </trkpt>
      <trkpt lat="48.72743" lon="7.04629">
        <ele>252.2</ele>
        <time>2023-12-05T17:23:48Z</time>
      </trkpt>
      <trkpt lat="48.72749" lon="7.04642">
        <ele>252.2</ele>
        <time>2023-12-05T17:23:50Z</time>
      </trkpt>
      <trkpt lat="48.7276" lon="7.04657">
        <ele>252.2</ele>
        <time>2023-12-05T17:23:53Z</time>
      </trkpt>
      <trkpt lat="48.72769" lon="7.04665">
        <ele>252.3</ele>
        <time>2023-12-05T17:23:55Z</time>
      </trkpt>
      <trkpt lat="48.72779" lon="7.04668">
        <ele>252.3</ele>
        <time>2023-12-05T17:23:57Z</time>
      </trkpt>
      <trkpt lat="48.72789" lon="7.04669">
        <ele>252.4</ele>
        <time>2023-12-05T17:23:59Z</time>
      </trkpt>
      <trkpt lat="48.72799" lon="7.04665">
        <ele>252.4</ele>
        <time>2023-12-05T17:24:01Z</time>
      </trkpt>
      <trkpt lat="48.72807" lon="7.04658">
        <ele>252.4</ele>
        <time>2023-12-05T17:24:03Z</time>
      </trkpt>
      <trkpt lat="48.72813" lon="7.04648">
        <ele>252.5</ele>
        <time>2023-12-05T17:24:05Z</time>
      </trkpt>
      <trkpt lat="48.72825" lon="7.04626">
        <ele>252.6</ele>
        <time>2023-12-05T17:24:09Z</time>
      </trkpt>
      <trkpt lat="48.72835" lon="7.04601">
        <ele>252.7</ele>
        <time>2023-12-05T17:24:13Z</time>
      </trkpt>
      <trkpt lat="48.72846" lon="7.04574">
        <ele>252.8</ele>
        <time>2023-12-05T17:24:17Z</time>
      </trkpt>
      <trkpt lat="48.72855" lon="7.0455">
        <ele>252.9</ele>
        <time>2023-12-05T17:24:21Z</time>
      </trkpt>
      <trkpt lat="48.72856" lon="7.04536">
        <ele>252.9</ele>
        <time>2023-12-05T17:24:23Z</time>
      </trkpt>
      <trkpt lat="48.72855" lon="7.04522">
        <ele>252.8</ele>
        <time>2023-12-05T17:24:25Z</time>
      </trkpt>
      <trkpt lat="48.72851" lon="7.0451">
        <ele>252.8</ele>
        <time>2023-12-05T17:24:27Z</time>
      </trkpt>
      <trkpt lat="48.72842" lon="7.04493">
        <ele>252.6</ele>
        <time>2023-12-05T17:24:30Z</time>
      </trkpt>
      <trkpt lat="48.72831" lon="7.04481">
        <ele>252.6</ele>
        <time>2023-12-05T17:24:33Z</time>
      </trkpt>
      <trkpt lat="48.72822" lon="7.04477">
        <ele>252.7</ele>
        <time>2023-12-05T17:24:35Z</time>
      </trkpt>
      <trkpt lat="48.72814" lon="7.04476">
        <ele>252.7</ele>
        <time>2023-12-05T17:24:37Z</time>
      </trkpt>
      <trkpt lat="48.72806" lon="7.04479">
        <ele>252.6</ele>
        <time>2023-12-05T17:24:39Z</time>
      </trkpt>
      <trkpt lat="48.72799" lon="7.04487">
        <ele>252.6</ele>
        <time>2023-12-05T17:24:41Z</time>
      </trkpt>
      <trkpt lat="48.72785" lon="7.04511">
        <ele>252.4</ele>
        <time>2023-12-05T17:24:45Z</time>
      </trkpt>
      <trkpt lat="48.72773" lon="7.04535">
        <ele>252.3</ele>
        <time>2023-12-05T17:24:49Z</time>
      </trkpt>
      <trkpt lat="48.72762" lon="7.0456">
        <ele>252.2</ele>
        <time>2023-12-05T17:24:53Z</time>
      </trkpt>
      <trkpt lat="48.72749" lon="7.04584">
        <ele>252.2</ele>
        <time>2023-12-05T17:24:57Z</time>
      </trkpt>
      <trkpt lat="48.72744" lon="7.04596">
        <ele>252.2</ele>
        <time>2023-12-05T17:24:59Z</time>
      </trkpt>
      <trkpt lat="48.7274" lon="7.0461">
        <ele>252.2</ele>
        <time>2023-12-05T17:25:01Z</time>
      </trkpt>
      <trkpt lat="48.7274" lon="7.04624">
        <ele>252.2</ele>
        <time>2023-12-05T17:25:03Z</time>
      </trkpt>
      <trkpt lat="48.72743" lon="7.04639">
        <ele>252.2</ele>
        <time>2023-12-05T17:25:05Z</time>
      </trkpt>
      <trkpt lat="48.72753" lon="7.04656">
        <ele>252.2</ele>
        <time>2023-12-05T17:25:08Z</time>
      </trkpt>
      <trkpt lat="48.72762" lon="7.04664">
        <ele>252.3</ele>
        <time>2023-12-05T17:25:10Z</time>
      </trkpt>
      <trkpt lat="48.72776" lon="7.04671">
        <ele>252.3</ele>
        <time>2023-12-05T17:25:13Z</time>
      </trkpt>
      <trkpt lat="48.72786" lon="7.04672">
        <ele>252.4</ele>
        <time>2023-12-05T17:25:15Z</time>
      </trkpt>
      <trkpt lat="48.72796" lon="7.04669">
        <ele>252.4</ele>
        <time>2023-12-05T17:25:17Z</time>
      </trkpt>
      <trkpt lat="48.72804" lon="7.04663">
        <ele>252.4</ele>
        <time>2023-12-05T17:25:19Z</time>
      </trkpt>
      <trkpt lat="48.72813" lon="7.04648">
        <ele>252.5</ele>
        <time>2023-12-05T17:25:22Z</time>
      </trkpt>
      <trkpt lat="48.72825" lon="7.04621">
        <ele>252.6</ele>
        <time>2023-12-05T17:25:27Z</time>
      </trkpt>
      <trkpt lat="48.72837" lon="7.04595">
        <ele>252.7</ele>
        <time>2023-12-05T17:25:32Z</time>
      </trkpt>
      <trkpt lat="48.72847" lon="7.04572">
        <ele>252.8</ele>
        <time>2023-12-05T17:25:36Z</time>
      </trkpt>
      <trkpt lat="48.72853" lon="7.04554">
        <ele>252.9</ele>
        <time>2023-12-05T17:25:39Z</time>
      </trkpt>
      <trkpt lat="48.72855" lon="7.0454">
        <ele>252.9</ele>
        <time>2023-12-05T17:25:41Z</time>
      </trkpt>
      <trkpt lat="48.72854" lon="7.04524">
        <ele>252.8</ele>
        <time>2023-12-05T17:25:43Z</time>
      </trkpt>
      <trkpt lat="48.7285" lon="7.0451">
        <ele>252.8</ele>
        <time>2023-12-05T17:25:45Z</time>
      </trkpt>
      <trkpt lat="48.72844" lon="7.04498">
        <ele>252.7</ele>
        <time>2023-12-05T17:25:47Z</time>
      </trkpt>
      <trkpt lat="48.72834" lon="7.04485">
        <ele>252.6</ele>
        <time>2023-12-05T17:25:50Z</time>
      </trkpt>
      <trkpt lat="48.72826" lon="7.04479">
        <ele>252.6</ele>
        <time>2023-12-05T17:25:52Z</time>
      </trkpt>
      <trkpt lat="48.72814" lon="7.04477">
        <ele>252.7</ele>
        <time>2023-12-05T17:25:55Z</time>
      </trkpt>
      <trkpt lat="48.72806" lon="7.0448">
        <ele>252.6</ele>
        <time>2023-12-05T17:25:57Z</time>
      </trkpt>
      <trkpt lat="48.72799" lon="7.04487">
        <ele>252.6</ele>
        <time>2023-12-05T17:25:59Z</time>
      </trkpt>
      <trkpt lat="48.7279" lon="7.04502">
        <ele>252.5</ele>
        <time>2023-12-05T17:26:02Z</time>
      </trkpt>
      <trkpt lat="48.72778" lon="7.04527">
        <ele>252.4</ele>
        <time>2023-12-05T17:26:06Z</time>
      </trkpt>
      <trkpt lat="48.72767" lon="7.04552">
        <ele>252.2</ele>
        <time>2023-12-05T17:26:10Z</time>
      </trkpt>
      <trkpt lat="48.72754" lon="7.04578">
        <ele>252.2</ele>
        <time>2023-12-05T17:26:14Z</time>
      </trkpt>
      <trkpt lat="48.72742" lon="7.04603">
        <ele>252.2</ele>
        <time>2023-12-05T17:26:18Z</time>
      </trkpt>
      <trkpt lat="48.72739" lon="7.04616">
        <ele>252.2</ele>
        <time>2023-12-05T17:26:20Z</time>
      </trkpt>
      <trkpt lat="48.72739" lon="7.0463">
        <ele>252.2</ele>
        <time>2023-12-05T17:26:22Z</time>
      </trkpt>
      <trkpt lat="48.72743" lon="7.04643">
        <ele>252.2</ele>
        <time>2023-12-05T17:26:24Z</time>
      </trkpt>
      <trkpt lat="48.7275" lon="7.04654">
        <ele>252.2</ele>
        <time>2023-12-05T17:26:26Z</time>
      </trkpt>
      <trkpt lat="48.72759" lon="7.04663">
        <ele>252.2</ele>
        <time>2023-12-05T17:26:28Z</time>
      </trkpt>
      <trkpt lat="48.72768" lon="7.04669">
        <ele>252.3</ele>
        <time>2023-12-05T17:26:30Z</time>
      </trkpt>
      <trkpt lat="48.72779" lon="7.04672">
        <ele>252.3</ele>
        <time>2023-12-05T17:26:32Z</time>
      </trkpt>
      <trkpt lat="48.72788" lon="7.04671">
        <ele>252.4</ele>
        <time>2023-12-05T17:26:34Z</time>
      </trkpt>
      <trkpt lat="48.72798" lon="7.04667">
        <ele>252.4</ele>
        <time>2023-12-05T17:26:36Z</time>
      </trkpt>
      <trkpt lat="48.72806" lon="7.0466">
        <ele>252.4</ele>
        <time>2023-12-05T17:26:38Z</time>
      </trkpt>
      <trkpt lat="48.7282" lon="7.04634">
        <ele>252.5</ele>
        <time>2023-12-05T17:26:43Z</time>
      </trkpt>
      <trkpt lat="48.72832" lon="7.04606">
        <ele>252.7</ele>
        <time>2023-12-05T17:26:48Z</time>
      </trkpt>
      <trkpt lat="48.72842" lon="7.04584">
        <ele>252.7</ele>
        <time>2023-12-05T17:26:52Z</time>
      </trkpt>
      <trkpt lat="48.72853" lon="7.04559">
        <ele>252.9</ele>
        <time>2023-12-05T17:26:56Z</time>
      </trkpt>
      <trkpt lat="48.72856" lon="7.04546">
        <ele>252.9</ele>
        <time>2023-12-05T17:26:58Z</time>
      </trkpt>
      <trkpt lat="48.72856" lon="7.0453">
        <ele>252.8</ele>
        <time>2023-12-05T17:27:00Z</time>
      </trkpt>
      <trkpt lat="48.72854" lon="7.04515">
        <ele>252.8</ele>
        <time>2023-12-05T17:27:02Z</time>
      </trkpt>
      <trkpt lat="48.72845" lon="7.04497">
        <ele>252.7</ele>
        <time>2023-12-05T17:27:05Z</time>
      </trkpt>
      <trkpt lat="48.72838" lon="7.04488">
        <ele>252.6</ele>
        <time>2023-12-05T17:27:07Z</time>
      </trkpt>
      <trkpt lat="48.72829" lon="7.04481">
        <ele>252.6</ele>
        <time>2023-12-05T17:27:09Z</time>
      </trkpt>
      <trkpt lat="48.7282" lon="7.04477">
        <ele>252.7</ele>
        <time>2023-12-05T17:27:11Z</time>
      </trkpt>
      <trkpt lat="48.72811" lon="7.04477">
        <ele>252.7</ele>
        <time>2023-12-05T17:27:13Z</time>
      </trkpt>
      <trkpt lat="48.72803" lon="7.04482">
        <ele>252.6</ele>
        <time>2023-12-05T17:27:15Z</time>
      </trkpt>
      <trkpt lat="48.72796" lon="7.04493">
        <ele>252.6</ele>
        <time>2023-12-05T17:27:17Z</time>
      </trkpt>
      <trkpt lat="48.72782" lon="7.04518">
        <ele>252.4</ele>
        <time>2023-12-05T17:27:21Z</time>
      </trkpt>
      <trkpt lat="48.72769" lon="7.04544">
        <ele>252.2</ele>
        <time>2023-12-05T17:27:25Z</time>
      </trkpt>
      <trkpt lat="48.72758" lon="7.0457">
        <ele>252.2</ele>
        <time>2023-12-05T17:27:29Z</time>
      </trkpt>
      <trkpt lat="48.72746" lon="7.04594">
        <ele>252.2</ele>
        <time>2023-12-05T17:27:33Z</time>
      </trkpt>
      <trkpt lat="48.72741" lon="7.04614">
        <ele>252.2</ele>
        <time>2023-12-05T17:27:36Z</time>
      </trkpt>
      <trkpt lat="48.72741" lon="7.04628">
        <ele>252.2</ele>
        <time>2023-12-05T17:27:38Z</time>
      </trkpt>
      <trkpt lat="48.72745" lon="7.04641">
        <ele>252.2</ele>
        <time>2023-12-05T17:27:40Z</time>
      </trkpt>
      <trkpt lat="48.72752" lon="7.04652">
        <ele>252.2</ele>
        <time>2023-12-05T17:27:42Z</time>
      </trkpt>
      <trkpt lat="48.72765" lon="7.04665">
        <ele>252.3</ele>
        <time>2023-12-05T17:27:45Z</time>
      </trkpt>
      <trkpt lat="48.72774" lon="7.04669">
        <ele>252.3</ele>
        <time>2023-12-05T17:27:47Z</time>
      </trkpt>
      <trkpt lat="48.72784" lon="7.04671">
        <ele>252.4</ele>
        <time>2023-12-05T17:27:49Z</time>
      </trkpt>
      <trkpt lat="48.72792" lon="7.0467">
        <ele>252.4</ele>
        <time>2023-12-05T17:27:51Z</time>
      </trkpt>
      <trkpt lat="48.72805" lon="7.04661">
        <ele>252.4</ele>
        <time>2023-12-05T17:27:54Z</time>
      </trkpt>
      <trkpt lat="48.72811" lon="7.0465">
        <ele>252.5</ele>
        <time>2023-12-05T17:27:56Z</time>
      </trkpt>
      <trkpt lat="48.72822" lon="7.04628">
        <ele>252.6</ele>
        <time>2023-12-05T17:28:00Z</time>
      </trkpt>
      <trkpt lat="48.72832" lon="7.04606">
        <ele>252.7</ele>
        <time>2023-12-05T17:28:04Z</time>
      </trkpt>
      <trkpt lat="48.72844" lon="7.04582">
        <ele>252.8</ele>
        <time>2023-12-05T17:28:08Z</time>
      </trkpt>
      <trkpt lat="48.72854" lon="7.04559">
        <ele>252.9</ele>
        <time>2023-12-05T17:28:12Z</time>
      </trkpt>
      <trkpt lat="48.72855" lon="7.04545">
        <ele>252.9</ele>
        <time>2023-12-05T17:28:14Z</time>
      </trkpt>
      <trkpt lat="48.72853" lon="7.04521">
        <ele>252.8</ele>
        <time>2023-12-05T17:28:17Z</time>
      </trkpt>
      <trkpt lat="48.72848" lon="7.04507">
        <ele>252.8</ele>
        <time>2023-12-05T17:28:19Z</time>
      </trkpt>
      <trkpt lat="48.72835" lon="7.04485">
        <ele>252.6</ele>
        <time>2023-12-05T17:28:23Z</time>
      </trkpt>
      <trkpt lat="48.72826" lon="7.04479">
        <ele>252.6</ele>
        <time>2023-12-05T17:28:25Z</time>
      </trkpt>
      <trkpt lat="48.72813" lon="7.04477">
        <ele>252.7</ele>
        <time>2023-12-05T17:28:28Z</time>
      </trkpt>
      <trkpt lat="48.72805" lon="7.04481">
        <ele>252.6</ele>
        <time>2023-12-05T17:28:30Z</time>
      </trkpt>
      <trkpt lat="48.72796" lon="7.0449">
        <ele>252.6</ele>
        <time>2023-12-05T17:28:32Z</time>
      </trkpt>
      <trkpt lat="48.72785" lon="7.04509">
        <ele>252.5</ele>
        <time>2023-12-05T17:28:35Z</time>
      </trkpt>
      <trkpt lat="48.7277" lon="7.04537">
        <ele>252.3</ele>
        <time>2023-12-05T17:28:39Z</time>
      </trkpt>
      <trkpt lat="48.72757" lon="7.04562">
        <ele>252.2</ele>
        <time>2023-12-05T17:28:43Z</time>
      </trkpt>
      <trkpt lat="48.72746" lon="7.04588">
        <ele>252.2</ele>
        <time>2023-12-05T17:28:47Z</time>
      </trkpt>
      <trkpt lat="48.72741" lon="7.04599">
        <ele>252.2</ele>
        <time>2023-12-05T17:28:49Z</time>
      </trkpt>
      <trkpt lat="48.72733" lon="7.04611">
        <ele>252.2</ele>
        <time>2023-12-05T17:28:54Z</time>
      </trkpt>
      <trkpt lat="48.72741" lon="7.04586">
        <ele>252.2</ele>
        <time>2023-12-05T17:29:03Z</time>
      </trkpt>
      <trkpt lat="48.72753" lon="7.04564">
        <ele>252.2</ele>
        <time>2023-12-05T17:29:12Z</time>
      </trkpt>
      <trkpt lat="48.72754" lon="7.04562">
        <ele>252.2</ele>
        <time>2023-12-05T17:29:13Z</time>
      </trkpt>
      <trkpt lat="48.72757" lon="7.04552">
        <ele>252.2</ele>
        <time>2023-12-05T17:29:21Z</time>
      </trkpt>
      <trkpt lat="48.72756" lon="7.04557">
        <ele>252.2</ele>
        <time>2023-12-05T17:29:23Z</time>
      </trkpt>
      <trkpt lat="48.72744" lon="7.0458">
        <ele>252.2</ele>
        <time>2023-12-05T17:29:32Z</time>
      </trkpt>
      <trkpt lat="48.72737" lon="7.04594">
        <ele>252.2</ele>
        <time>2023-12-05T17:29:39Z</time>
      </trkpt>
      <trkpt lat="48.72738" lon="7.04587">
        <ele>252.2</ele>
        <time>2023-12-05T17:29:43Z</time>
      </trkpt>
      <trkpt lat="48.7275" lon="7.04568">
        <ele>252.2</ele>
        <time>2023-12-05T17:29:54Z</time>
      </trkpt>
      <trkpt lat="48.72751" lon="7.04573">
        <ele>252.2</ele>
        <time>2023-12-05T17:29:56Z</time>
      </trkpt>
      <trkpt lat="48.72747" lon="7.04582">
        <ele>252.2</ele>
        <time>2023-12-05T17:30:02Z</time>
      </trkpt>
      <trkpt lat="48.72748" lon="7.04581">
        <ele>252.2</ele>
        <time>2023-12-05T17:30:04Z</time>
      </trkpt>
      <trkpt lat="48.72749" lon="7.04579">
        <ele>252.2</ele>
        <time>2023-12-05T17:30:11Z</time>
      </trkpt>
      <trkpt lat="48.7275" lon="7.04581">
        <ele>252.2</ele>
        <time>2023-12-05T17:30:34Z</time>
      </trkpt>
      <trkpt lat="48.72751" lon="7.04583">
        <ele>252.2</ele>
        <time>2023-12-05T17:30:38Z</time>
      </trkpt>
      <trkpt lat="48.72742" lon="7.04612">
        <ele>252.2</ele>
        <time>2023-12-05T17:30:44Z</time>
      </trkpt>
      <trkpt lat="48.72748" lon="7.0464">
        <ele>252.2</ele>
        <time>2023-12-05T17:30:48Z</time>
      </trkpt>
      <trkpt lat="48.7276" lon="7.04661">
        <ele>252.3</ele>
        <time>2023-12-05T17:30:52Z</time>
      </trkpt>
      <trkpt lat="48.72764" lon="7.04665">
        <ele>252.3</ele>
        <time>2023-12-05T17:30:53Z</time>
      </trkpt>
      <trkpt lat="48.72777" lon="7.04673">
        <ele>252.3</ele>
        <time>2023-12-05T17:30:56Z</time>
      </trkpt>
      <trkpt lat="48.72786" lon="7.04674">
        <ele>252.4</ele>
        <time>2023-12-05T17:30:58Z</time>
      </trkpt>
      <trkpt lat="48.72795" lon="7.04672">
        <ele>252.4</ele>
        <time>2023-12-05T17:31:00Z</time>
      </trkpt>
      <trkpt lat="48.72804" lon="7.04667">
        <ele>252.4</ele>
        <time>2023-12-05T17:31:02Z</time>
      </trkpt>
      <trkpt lat="48.7281" lon="7.04659">
        <ele>252.4</ele>
        <time>2023-12-05T17:31:04Z</time>
      </trkpt>
      <trkpt lat="48.72824" lon="7.04633">
        <ele>252.6</ele>
        <time>2023-12-05T17:31:09Z</time>
      </trkpt>
      <trkpt lat="48.72838" lon="7.04608">
        <ele>252.7</ele>
        <time>2023-12-05T17:31:14Z</time>
      </trkpt>
      <trkpt lat="48.72851" lon="7.04581">
        <ele>252.8</ele>
        <time>2023-12-05T17:31:19Z</time>
      </trkpt>
      <trkpt lat="48.72853" lon="7.04575">
        <ele>252.8</ele>
        <time>2023-12-05T17:31:20Z</time>
      </trkpt>
      <trkpt lat="48.7286" lon="7.04557">
        <ele>252.9</ele>
        <time>2023-12-05T17:31:23Z</time>
      </trkpt>
      <trkpt lat="48.72861" lon="7.04543">
        <ele>252.9</ele>
        <time>2023-12-05T17:31:25Z</time>
      </trkpt>
      <trkpt lat="48.7286" lon="7.04528">
        <ele>252.8</ele>
        <time>2023-12-05T17:31:27Z</time>
      </trkpt>
      <trkpt lat="48.72858" lon="7.04515">
        <ele>252.8</ele>
        <time>2023-12-05T17:31:29Z</time>
      </trkpt>
      <trkpt lat="48.72849" lon="7.04493">
        <ele>252.7</ele>
        <time>2023-12-05T17:31:33Z</time>
      </trkpt>
      <trkpt lat="48.72842" lon="7.04484">
        <ele>252.6</ele>
        <time>2023-12-05T17:31:35Z</time>
      </trkpt>
      <trkpt lat="48.72834" lon="7.04478">
        <ele>252.6</ele>
        <time>2023-12-05T17:31:37Z</time>
      </trkpt>
      <trkpt lat="48.72825" lon="7.04476">
        <ele>252.7</ele>
        <time>2023-12-05T17:31:39Z</time>
      </trkpt>
      <trkpt lat="48.72816" lon="7.04475">
        <ele>252.7</ele>
        <time>2023-12-05T17:31:41Z</time>
      </trkpt>
      <trkpt lat="48.72807" lon="7.04478">
        <ele>252.6</ele>
        <time>2023-12-05T17:31:43Z</time>
      </trkpt>
      <trkpt lat="48.72798" lon="7.04485">
        <ele>252.6</ele>
        <time>2023-12-05T17:31:45Z</time>
      </trkpt>
      <trkpt lat="48.72788" lon="7.04501">
        <ele>252.5</ele>
        <time>2023-12-05T17:31:48Z</time>
      </trkpt>
      <trkpt lat="48.72776" lon="7.04522">
        <ele>252.4</ele>
        <time>2023-12-05T17:31:52Z</time>
      </trkpt>
      <trkpt lat="48.72765" lon="7.04544">
        <ele>252.2</ele>
        <time>2023-12-05T17:31:56Z</time>
      </trkpt>
      <trkpt lat="48.72753" lon="7.04569">
        <ele>252.2</ele>
        <time>2023-12-05T17:32:01Z</time>
      </trkpt>
      <trkpt lat="48.72742" lon="7.04597">
        <ele>252.2</ele>
        <time>2023-12-05T17:32:06Z</time>
      </trkpt>
      <trkpt lat="48.7274" lon="7.0461">
        <ele>252.2</ele>
        <time>2023-12-05T17:32:08Z</time>
      </trkpt>
      <trkpt lat="48.7274" lon="7.04624">
        <ele>252.2</ele>
        <time>2023-12-05T17:32:10Z</time>
      </trkpt>
      <trkpt lat="48.72743" lon="7.04636">
        <ele>252.2</ele>
        <time>2023-12-05T17:32:12Z</time>
      </trkpt>
      <trkpt lat="48.72747" lon="7.04647">
        <ele>252.2</ele>
        <time>2023-12-05T17:32:14Z</time>
      </trkpt>
      <trkpt lat="48.72764" lon="7.04667">
        <ele>252.3</ele>
        <time>2023-12-05T17:32:19Z</time>
      </trkpt>
      <trkpt lat="48.72772" lon="7.04672">
        <ele>252.3</ele>
        <time>2023-12-05T17:32:21Z</time>
      </trkpt>
      <trkpt lat="48.7279" lon="7.04674">
        <ele>252.4</ele>
        <time>2023-12-05T17:32:25Z</time>
      </trkpt>
      <trkpt lat="48.72799" lon="7.04671">
        <ele>252.4</ele>
        <time>2023-12-05T17:32:27Z</time>
      </trkpt>
      <trkpt lat="48.72806" lon="7.04665">
        <ele>252.4</ele>
        <time>2023-12-05T17:32:29Z</time>
      </trkpt>
      <trkpt lat="48.72812" lon="7.04657">
        <ele>252.4</ele>
        <time>2023-12-05T17:32:31Z</time>
      </trkpt>
      <trkpt lat="48.72824" lon="7.04632">
        <ele>252.6</ele>
        <time>2023-12-05T17:32:36Z</time>
      </trkpt>
      <trkpt lat="48.72836" lon="7.04606">
        <ele>252.7</ele>
        <time>2023-12-05T17:32:41Z</time>
      </trkpt>
      <trkpt lat="48.7284" lon="7.04595">
        <ele>252.7</ele>
        <time>2023-12-05T17:32:43Z</time>
      </trkpt>
      <trkpt lat="48.72853" lon="7.04568">
        <ele>252.8</ele>
        <time>2023-12-05T17:32:48Z</time>
      </trkpt>
      <trkpt lat="48.72858" lon="7.04551">
        <ele>252.9</ele>
        <time>2023-12-05T17:32:51Z</time>
      </trkpt>
      <trkpt lat="48.72859" lon="7.04538">
        <ele>252.9</ele>
        <time>2023-12-05T17:32:53Z</time>
      </trkpt>
      <trkpt lat="48.72857" lon="7.04518">
        <ele>252.8</ele>
        <time>2023-12-05T17:32:56Z</time>
      </trkpt>
      <trkpt lat="48.72854" lon="7.04506">
        <ele>252.8</ele>
        <time>2023-12-05T17:32:58Z</time>
      </trkpt>
      <trkpt lat="48.72846" lon="7.04491">
        <ele>252.6</ele>
        <time>2023-12-05T17:33:01Z</time>
      </trkpt>
      <trkpt lat="48.72839" lon="7.04483">
        <ele>252.6</ele>
        <time>2023-12-05T17:33:03Z</time>
      </trkpt>
      <trkpt lat="48.72831" lon="7.04477">
        <ele>252.6</ele>
        <time>2023-12-05T17:33:05Z</time>
      </trkpt>
      <trkpt lat="48.72822" lon="7.04475">
        <ele>252.7</ele>
        <time>2023-12-05T17:33:07Z</time>
      </trkpt>
      <trkpt lat="48.72814" lon="7.04475">
        <ele>252.7</ele>
        <time>2023-12-05T17:33:09Z</time>
      </trkpt>
      <trkpt lat="48.72805" lon="7.0448">
        <ele>252.6</ele>
        <time>2023-12-05T17:33:11Z</time>
      </trkpt>
      <trkpt lat="48.72796" lon="7.04488">
        <ele>252.5</ele>
        <time>2023-12-05T17:33:13Z</time>
      </trkpt>
      <trkpt lat="48.72784" lon="7.04508">
        <ele>252.4</ele>
        <time>2023-12-05T17:33:17Z</time>
      </trkpt>
      <trkpt lat="48.72772" lon="7.0453">
        <ele>252.3</ele>
        <time>2023-12-05T17:33:21Z</time>
      </trkpt>
      <trkpt lat="48.72761" lon="7.04552">
        <ele>252.2</ele>
        <time>2023-12-05T17:33:25Z</time>
      </trkpt>
      <trkpt lat="48.72748" lon="7.04579">
        <ele>252.2</ele>
        <time>2023-12-05T17:33:30Z</time>
      </trkpt>
      <trkpt lat="48.72741" lon="7.04596">
        <ele>252.2</ele>
        <time>2023-12-05T17:33:33Z</time>
      </trkpt>
      <trkpt lat="48.72738" lon="7.0461">
        <ele>252.2</ele>
        <time>2023-12-05T17:33:35Z</time>
      </trkpt>
      <trkpt lat="48.72738" lon="7.04631">
        <ele>252.2</ele>
        <time>2023-12-05T17:33:38Z</time>
      </trkpt>
      <trkpt lat="48.72742" lon="7.04643">
        <ele>252.2</ele>
        <time>2023-12-05T17:33:40Z</time>
      </trkpt>
      <trkpt lat="48.72757" lon="7.04665">
        <ele>252.3</ele>
        <time>2023-12-05T17:33:45Z</time>
      </trkpt>
      <trkpt lat="48.72761" lon="7.04668">
        <ele>252.3</ele>
        <time>2023-12-05T17:33:46Z</time>
      </trkpt>
      <trkpt lat="48.7277" lon="7.04673">
        <ele>252.3</ele>
        <time>2023-12-05T17:33:48Z</time>
      </trkpt>
      <trkpt lat="48.72783" lon="7.04675">
        <ele>252.4</ele>
        <time>2023-12-05T17:33:51Z</time>
      </trkpt>
      <trkpt lat="48.72792" lon="7.04674">
        <ele>252.4</ele>
        <time>2023-12-05T17:33:53Z</time>
      </trkpt>
      <trkpt lat="48.72801" lon="7.04669">
        <ele>252.4</ele>
        <time>2023-12-05T17:33:55Z</time>
      </trkpt>
      <trkpt lat="48.72811" lon="7.04657">
        <ele>252.4</ele>
        <time>2023-12-05T17:33:58Z</time>
      </trkpt>
      <trkpt lat="48.72821" lon="7.04637">
        <ele>252.6</ele>
        <time>2023-12-05T17:34:02Z</time>
      </trkpt>
      <trkpt lat="48.7283" lon="7.04621">
        <ele>252.6</ele>
        <time>2023-12-05T17:34:05Z</time>
      </trkpt>
      <trkpt lat="48.72836" lon="7.04611">
        <ele>252.7</ele>
        <time>2023-12-05T17:34:07Z</time>
      </trkpt>
      <trkpt lat="48.72849" lon="7.04585">
        <ele>252.8</ele>
        <time>2023-12-05T17:34:12Z</time>
      </trkpt>
      <trkpt lat="48.7286" lon="7.04563">
        <ele>252.9</ele>
        <time>2023-12-05T17:34:16Z</time>
      </trkpt>
      <trkpt lat="48.72861" lon="7.04557">
        <ele>252.9</ele>
        <time>2023-12-05T17:34:17Z</time>
      </trkpt>
      <trkpt lat="48.72863" lon="7.04545">
        <ele>252.9</ele>
        <time>2023-12-05T17:34:19Z</time>
      </trkpt>
      <trkpt lat="48.72862" lon="7.04531">
        <ele>252.8</ele>
        <time>2023-12-05T17:34:21Z</time>
      </trkpt>
      <trkpt lat="48.72858" lon="7.04512">
        <ele>252.8</ele>
        <time>2023-12-05T17:34:24Z</time>
      </trkpt>
      <trkpt lat="48.72849" lon="7.04495">
        <ele>252.7</ele>
        <time>2023-12-05T17:34:27Z</time>
      </trkpt>
      <trkpt lat="48.72842" lon="7.04487">
        <ele>252.6</ele>
        <time>2023-12-05T17:34:29Z</time>
      </trkpt>
      <trkpt lat="48.72833" lon="7.04481">
        <ele>252.6</ele>
        <time>2023-12-05T17:34:31Z</time>
      </trkpt>
      <trkpt lat="48.72815" lon="7.04478">
        <ele>252.7</ele>
        <time>2023-12-05T17:34:35Z</time>
      </trkpt>
      <trkpt lat="48.72811" lon="7.04478">
        <ele>252.6</ele>
        <time>2023-12-05T17:34:36Z</time>
      </trkpt>
      <trkpt lat="48.72802" lon="7.04482">
        <ele>252.6</ele>
        <time>2023-12-05T17:34:38Z</time>
      </trkpt>
      <trkpt lat="48.72793" lon="7.0449">
        <ele>252.5</ele>
        <time>2023-12-05T17:34:40Z</time>
      </trkpt>
      <trkpt lat="48.72783" lon="7.04512">
        <ele>252.4</ele>
        <time>2023-12-05T17:34:44Z</time>
      </trkpt>
      <trkpt lat="48.72771" lon="7.04535">
        <ele>252.3</ele>
        <time>2023-12-05T17:34:48Z</time>
      </trkpt>
      <trkpt lat="48.72757" lon="7.04558">
        <ele>252.2</ele>
        <time>2023-12-05T17:34:52Z</time>
      </trkpt>
      <trkpt lat="48.72746" lon="7.0458">
        <ele>252.2</ele>
        <time>2023-12-05T17:34:56Z</time>
      </trkpt>
      <trkpt lat="48.72736" lon="7.04609">
        <ele>252.2</ele>
        <time>2023-12-05T17:35:01Z</time>
      </trkpt>
      <trkpt lat="48.72738" lon="7.04636">
        <ele>252.2</ele>
        <time>2023-12-05T17:35:05Z</time>
      </trkpt>
      <trkpt lat="48.72749" lon="7.04658">
        <ele>252.2</ele>
        <time>2023-12-05T17:35:09Z</time>
      </trkpt>
      <trkpt lat="48.72765" lon="7.04672">
        <ele>252.3</ele>
        <time>2023-12-05T17:35:13Z</time>
      </trkpt>
      <trkpt lat="48.7278" lon="7.04676">
        <ele>252.4</ele>
        <time>2023-12-05T17:35:16Z</time>
      </trkpt>
      <trkpt lat="48.7279" lon="7.04674">
        <ele>252.4</ele>
        <time>2023-12-05T17:35:18Z</time>
      </trkpt>
      <trkpt lat="48.72803" lon="7.04666">
        <ele>252.4</ele>
        <time>2023-12-05T17:35:21Z</time>
      </trkpt>
      <trkpt lat="48.72813" lon="7.04651">
        <ele>252.5</ele>
        <time>2023-12-05T17:35:24Z</time>
      </trkpt>
      <trkpt lat="48.72825" lon="7.04629">
        <ele>252.6</ele>
        <time>2023-12-05T17:35:28Z</time>
      </trkpt>
      <trkpt lat="48.72837" lon="7.04606">
        <ele>252.7</ele>
        <time>2023-12-05T17:35:32Z</time>
      </trkpt>
      <trkpt lat="48.72848" lon="7.04583">
        <ele>252.8</ele>
        <time>2023-12-05T17:35:36Z</time>
      </trkpt>
      <trkpt lat="48.72859" lon="7.04555">
        <ele>252.9</ele>
        <time>2023-12-05T17:35:41Z</time>
      </trkpt>
      <trkpt lat="48.72861" lon="7.04535">
        <ele>252.9</ele>
        <time>2023-12-05T17:35:44Z</time>
      </trkpt>
      <trkpt lat="48.7286" lon="7.04519">
        <ele>252.8</ele>
        <time>2023-12-05T17:35:46Z</time>
      </trkpt>
      <trkpt lat="48.72855" lon="7.04506">
        <ele>252.8</ele>
        <time>2023-12-05T17:35:48Z</time>
      </trkpt>
      <trkpt lat="48.72846" lon="7.04489">
        <ele>252.8</ele>
        <time>2023-12-05T17:35:51Z</time>
      </trkpt>
      <trkpt lat="48.72838" lon="7.04481">
        <ele>252.7</ele>
        <time>2023-12-05T17:35:53Z</time>
      </trkpt>
      <trkpt lat="48.7283" lon="7.04475">
        <ele>252.7</ele>
        <time>2023-12-05T17:35:55Z</time>
      </trkpt>
      <trkpt lat="48.72822" lon="7.04473">
        <ele>252.6</ele>
        <time>2023-12-05T17:35:57Z</time>
      </trkpt>
      <trkpt lat="48.72808" lon="7.04477">
        <ele>252.6</ele>
        <time>2023-12-05T17:36:00Z</time>
      </trkpt>
      <trkpt lat="48.72798" lon="7.04484">
        <ele>252.6</ele>
        <time>2023-12-05T17:36:02Z</time>
      </trkpt>
      <trkpt lat="48.72791" lon="7.04495">
        <ele>252.7</ele>
        <time>2023-12-05T17:36:04Z</time>
      </trkpt>
      <trkpt lat="48.72778" lon="7.0452">
        <ele>252.6</ele>
        <time>2023-12-05T17:36:08Z</time>
      </trkpt>
      <trkpt lat="48.72766" lon="7.04544">
        <ele>252.5</ele>
        <time>2023-12-05T17:36:12Z</time>
      </trkpt>
      <trkpt lat="48.72755" lon="7.04567">
        <ele>252.5</ele>
        <time>2023-12-05T17:36:16Z</time>
      </trkpt>
      <trkpt lat="48.72749" lon="7.04579">
        <ele>252.4</ele>
        <time>2023-12-05T17:36:18Z</time>
      </trkpt>
      <trkpt lat="48.72741" lon="7.04592">
        <ele>252.4</ele>
        <time>2023-12-05T17:36:21Z</time>
      </trkpt>
      <trkpt lat="48.72735" lon="7.04606">
        <ele>252.3</ele>
        <time>2023-12-05T17:36:30Z</time>
      </trkpt>
      <trkpt lat="48.72737" lon="7.04604">
        <ele>252.3</ele>
        <time>2023-12-05T17:36:32Z</time>
      </trkpt>
      <trkpt lat="48.72738" lon="7.04601">
        <ele>252.3</ele>
        <time>2023-12-05T17:36:34Z</time>
      </trkpt>
      <trkpt lat="48.72748" lon="7.04577">
        <ele>252.2</ele>
        <time>2023-12-05T17:36:45Z</time>
      </trkpt>
      <trkpt lat="48.72756" lon="7.04558">
        <ele>252.2</ele>
        <time>2023-12-05T17:36:55Z</time>
      </trkpt>
      <trkpt lat="48.72746" lon="7.04579">
        <ele>252.2</ele>
        <time>2023-12-05T17:37:06Z</time>
      </trkpt>
      <trkpt lat="48.72745" lon="7.04581">
        <ele>252.2</ele>
        <time>2023-12-05T17:37:09Z</time>
      </trkpt>
      <trkpt lat="48.72749" lon="7.04575">
        <ele>252.2</ele>
        <time>2023-12-05T17:37:19Z</time>
      </trkpt>
      <trkpt lat="48.72747" lon="7.04586">
        <ele>252.2</ele>
        <time>2023-12-05T17:37:29Z</time>
      </trkpt>
      <trkpt lat="48.72742" lon="7.04608">
        <ele>252.2</ele>
        <time>2023-12-05T17:37:34Z</time>
      </trkpt>
      <trkpt lat="48.72742" lon="7.04624">
        <ele>252.2</ele>
        <time>2023-12-05T17:37:36Z</time>
      </trkpt>
      <trkpt lat="48.72746" lon="7.04638">
        <ele>252.2</ele>
        <time>2023-12-05T17:37:38Z</time>
      </trkpt>
      <trkpt lat="48.72753" lon="7.0465">
        <ele>252.2</ele>
        <time>2023-12-05T17:37:40Z</time>
      </trkpt>
      <trkpt lat="48.72766" lon="7.04662">
        <ele>252.3</ele>
        <time>2023-12-05T17:37:43Z</time>
      </trkpt>
      <trkpt lat="48.72779" lon="7.04669">
        <ele>252.3</ele>
        <time>2023-12-05T17:37:46Z</time>
      </trkpt>
      <trkpt lat="48.72789" lon="7.0467">
        <ele>252.4</ele>
        <time>2023-12-05T17:37:48Z</time>
      </trkpt>
      <trkpt lat="48.72798" lon="7.04667">
        <ele>252.4</ele>
        <time>2023-12-05T17:37:50Z</time>
      </trkpt>
      <trkpt lat="48.72806" lon="7.0466">
        <ele>252.4</ele>
        <time>2023-12-05T17:37:52Z</time>
      </trkpt>
      <trkpt lat="48.72818" lon="7.04639">
        <ele>252.5</ele>
        <time>2023-12-05T17:37:56Z</time>
      </trkpt>
      <trkpt lat="48.7283" lon="7.04615">
        <ele>252.6</ele>
        <time>2023-12-05T17:38:00Z</time>
      </trkpt>
      <trkpt lat="48.72842" lon="7.04587">
        <ele>252.7</ele>
        <time>2023-12-05T17:38:05Z</time>
      </trkpt>
      <trkpt lat="48.72852" lon="7.04564">
        <ele>252.8</ele>
        <time>2023-12-05T17:38:09Z</time>
      </trkpt>
      <trkpt lat="48.72855" lon="7.04553">
        <ele>252.9</ele>
        <time>2023-12-05T17:38:11Z</time>
      </trkpt>
      <trkpt lat="48.72855" lon="7.04531">
        <ele>252.8</ele>
        <time>2023-12-05T17:38:14Z</time>
      </trkpt>
      <trkpt lat="48.72851" lon="7.04515">
        <ele>252.8</ele>
        <time>2023-12-05T17:38:16Z</time>
      </trkpt>
      <trkpt lat="48.72842" lon="7.04496">
        <ele>252.7</ele>
        <time>2023-12-05T17:38:19Z</time>
      </trkpt>
      <trkpt lat="48.72834" lon="7.04486">
        <ele>252.6</ele>
        <time>2023-12-05T17:38:21Z</time>
      </trkpt>
      <trkpt lat="48.72821" lon="7.04478">
        <ele>252.6</ele>
        <time>2023-12-05T17:38:24Z</time>
      </trkpt>
      <trkpt lat="48.72811" lon="7.04477">
        <ele>252.7</ele>
        <time>2023-12-05T17:38:26Z</time>
      </trkpt>
      <trkpt lat="48.72798" lon="7.04482">
        <ele>252.6</ele>
        <time>2023-12-05T17:38:29Z</time>
      </trkpt>
      <trkpt lat="48.72791" lon="7.04492">
        <ele>252.5</ele>
        <time>2023-12-05T17:38:31Z</time>
      </trkpt>
      <trkpt lat="48.72779" lon="7.04517">
        <ele>252.4</ele>
        <time>2023-12-05T17:38:35Z</time>
      </trkpt>
      <trkpt lat="48.72767" lon="7.04543">
        <ele>252.2</ele>
        <time>2023-12-05T17:38:39Z</time>
      </trkpt>
      <trkpt lat="48.72756" lon="7.04569">
        <ele>252.2</ele>
        <time>2023-12-05T17:38:43Z</time>
      </trkpt>
      <trkpt lat="48.72745" lon="7.04595">
        <ele>252.2</ele>
        <time>2023-12-05T17:38:47Z</time>
      </trkpt>
      <trkpt lat="48.72741" lon="7.04608">
        <ele>252.2</ele>
        <time>2023-12-05T17:38:49Z</time>
      </trkpt>
      <trkpt lat="48.72739" lon="7.04622">
        <ele>252.2</ele>
        <time>2023-12-05T17:38:51Z</time>
      </trkpt>
      <trkpt lat="48.72742" lon="7.04637">
        <ele>252.2</ele>
        <time>2023-12-05T17:38:53Z</time>
      </trkpt>
      <trkpt lat="48.72748" lon="7.04649">
        <ele>252.2</ele>
        <time>2023-12-05T17:38:55Z</time>
      </trkpt>
      <trkpt lat="48.72756" lon="7.04659">
        <ele>252.2</ele>
        <time>2023-12-05T17:38:57Z</time>
      </trkpt>
      <trkpt lat="48.72769" lon="7.04668">
        <ele>252.3</ele>
        <time>2023-12-05T17:39:00Z</time>
      </trkpt>
      <trkpt lat="48.72778" lon="7.04671">
        <ele>252.3</ele>
        <time>2023-12-05T17:39:02Z</time>
      </trkpt>
      <trkpt lat="48.72793" lon="7.04667">
        <ele>252.4</ele>
        <time>2023-12-05T17:39:05Z</time>
      </trkpt>
      <trkpt lat="48.72802" lon="7.04661">
        <ele>252.4</ele>
        <time>2023-12-05T17:39:07Z</time>
      </trkpt>
      <trkpt lat="48.72809" lon="7.04652">
        <ele>252.4</ele>
        <time>2023-12-05T17:39:09Z</time>
      </trkpt>
      <trkpt lat="48.7282" lon="7.04631">
        <ele>252.6</ele>
        <time>2023-12-05T17:39:13Z</time>
      </trkpt>
      <trkpt lat="48.72831" lon="7.04609">
        <ele>252.7</ele>
        <time>2023-12-05T17:39:17Z</time>
      </trkpt>
      <trkpt lat="48.72844" lon="7.04584">
        <ele>252.8</ele>
        <time>2023-12-05T17:39:22Z</time>
      </trkpt>
      <trkpt lat="48.72855" lon="7.04553">
        <ele>252.9</ele>
        <time>2023-12-05T17:39:27Z</time>
      </trkpt>
      <trkpt lat="48.72856" lon="7.04529">
        <ele>252.8</ele>
        <time>2023-12-05T17:39:30Z</time>
      </trkpt>
      <trkpt lat="48.72853" lon="7.04513">
        <ele>252.8</ele>
        <time>2023-12-05T17:39:32Z</time>
      </trkpt>
      <trkpt lat="48.72848" lon="7.045">
        <ele>252.7</ele>
        <time>2023-12-05T17:39:34Z</time>
      </trkpt>
      <trkpt lat="48.72837" lon="7.04486">
        <ele>252.6</ele>
        <time>2023-12-05T17:39:37Z</time>
      </trkpt>
      <trkpt lat="48.72825" lon="7.04477">
        <ele>252.6</ele>
        <time>2023-12-05T17:39:40Z</time>
      </trkpt>
      <trkpt lat="48.72811" lon="7.04476">
        <ele>252.7</ele>
        <time>2023-12-05T17:39:43Z</time>
      </trkpt>
      <trkpt lat="48.72803" lon="7.04481">
        <ele>252.6</ele>
        <time>2023-12-05T17:39:45Z</time>
      </trkpt>
      <trkpt lat="48.72788" lon="7.04502">
        <ele>252.5</ele>
        <time>2023-12-05T17:39:49Z</time>
      </trkpt>
      <trkpt lat="48.72775" lon="7.04527">
        <ele>252.4</ele>
        <time>2023-12-05T17:39:53Z</time>
      </trkpt>
      <trkpt lat="48.72764" lon="7.04552">
        <ele>252.2</ele>
        <time>2023-12-05T17:39:57Z</time>
      </trkpt>
      <trkpt lat="48.72752" lon="7.04577">
        <ele>252.2</ele>
        <time>2023-12-05T17:40:01Z</time>
      </trkpt>
      <trkpt lat="48.72742" lon="7.046">
        <ele>252.2</ele>
        <time>2023-12-05T17:40:05Z</time>
      </trkpt>
      <trkpt lat="48.72739" lon="7.04614">
        <ele>252.2</ele>
        <time>2023-12-05T17:40:07Z</time>
      </trkpt>
      <trkpt lat="48.7274" lon="7.04634">
        <ele>252.2</ele>
        <time>2023-12-05T17:40:10Z</time>
      </trkpt>
      <trkpt lat="48.72746" lon="7.04646">
        <ele>252.2</ele>
        <time>2023-12-05T17:40:12Z</time>
      </trkpt>
      <trkpt lat="48.72759" lon="7.04661">
        <ele>252.3</ele>
        <time>2023-12-05T17:40:15Z</time>
      </trkpt>
      <trkpt lat="48.72767" lon="7.04666">
        <ele>252.3</ele>
        <time>2023-12-05T17:40:17Z</time>
      </trkpt>
      <trkpt lat="48.72782" lon="7.04671">
        <ele>252.4</ele>
        <time>2023-12-05T17:40:20Z</time>
      </trkpt>
      <trkpt lat="48.72791" lon="7.04669">
        <ele>252.4</ele>
        <time>2023-12-05T17:40:22Z</time>
      </trkpt>
      <trkpt lat="48.728" lon="7.04664">
        <ele>252.4</ele>
        <time>2023-12-05T17:40:24Z</time>
      </trkpt>
      <trkpt lat="48.72807" lon="7.04655">
        <ele>252.4</ele>
        <time>2023-12-05T17:40:26Z</time>
      </trkpt>
      <trkpt lat="48.72818" lon="7.04633">
        <ele>252.5</ele>
        <time>2023-12-05T17:40:30Z</time>
      </trkpt>
      <trkpt lat="48.72829" lon="7.04612">
        <ele>252.6</ele>
        <time>2023-12-05T17:40:34Z</time>
      </trkpt>
      <trkpt lat="48.7284" lon="7.0459">
        <ele>252.7</ele>
        <time>2023-12-05T17:40:38Z</time>
      </trkpt>
      <trkpt lat="48.72851" lon="7.04568">
        <ele>252.8</ele>
        <time>2023-12-05T17:40:42Z</time>
      </trkpt>
      <trkpt lat="48.72855" lon="7.04557">
        <ele>252.9</ele>
        <time>2023-12-05T17:40:44Z</time>
      </trkpt>
      <trkpt lat="48.72856" lon="7.04545">
        <ele>252.9</ele>
        <time>2023-12-05T17:40:46Z</time>
      </trkpt>
      <trkpt lat="48.72854" lon="7.04521">
        <ele>252.8</ele>
        <time>2023-12-05T17:40:49Z</time>
      </trkpt>
      <trkpt lat="48.72849" lon="7.04506">
        <ele>252.7</ele>
        <time>2023-12-05T17:40:51Z</time>
      </trkpt>
      <trkpt lat="48.72837" lon="7.04489">
        <ele>252.6</ele>
        <time>2023-12-05T17:40:54Z</time>
      </trkpt>
      <trkpt lat="48.72824" lon="7.0448">
        <ele>252.6</ele>
        <time>2023-12-05T17:40:57Z</time>
      </trkpt>
      <trkpt lat="48.72815" lon="7.04479">
        <ele>252.7</ele>
        <time>2023-12-05T17:40:59Z</time>
      </trkpt>
      <trkpt lat="48.72806" lon="7.04482">
        <ele>252.6</ele>
        <time>2023-12-05T17:41:01Z</time>
      </trkpt>
      <trkpt lat="48.72799" lon="7.04489">
        <ele>252.6</ele>
        <time>2023-12-05T17:41:03Z</time>
      </trkpt>
      <trkpt lat="48.72792" lon="7.04498">
        <ele>252.5</ele>
        <time>2023-12-05T17:41:05Z</time>
      </trkpt>
      <trkpt lat="48.72779" lon="7.04524">
        <ele>252.4</ele>
        <time>2023-12-05T17:41:09Z</time>
      </trkpt>
      <trkpt lat="48.72767" lon="7.04549">
        <ele>252.2</ele>
        <time>2023-12-05T17:41:13Z</time>
      </trkpt>
      <trkpt lat="48.72756" lon="7.04574">
        <ele>252.2</ele>
        <time>2023-12-05T17:41:17Z</time>
      </trkpt>
      <trkpt lat="48.72745" lon="7.04598">
        <ele>252.2</ele>
        <time>2023-12-05T17:41:21Z</time>
      </trkpt>
      <trkpt lat="48.72741" lon="7.04611">
        <ele>252.2</ele>
        <time>2023-12-05T17:41:23Z</time>
      </trkpt>
      <trkpt lat="48.7274" lon="7.04624">
        <ele>252.2</ele>
        <time>2023-12-05T17:41:25Z</time>
      </trkpt>
      <trkpt lat="48.72742" lon="7.04636">
        <ele>252.2</ele>
        <time>2023-12-05T17:41:27Z</time>
      </trkpt>
      <trkpt lat="48.72748" lon="7.04648">
        <ele>252.2</ele>
        <time>2023-12-05T17:41:29Z</time>
      </trkpt>
      <trkpt lat="48.72761" lon="7.04663">
        <ele>252.2</ele>
        <time>2023-12-05T17:41:32Z</time>
      </trkpt>
      <trkpt lat="48.7277" lon="7.04669">
        <ele>252.3</ele>
        <time>2023-12-05T17:41:34Z</time>
      </trkpt>
      <trkpt lat="48.7278" lon="7.04672">
        <ele>252.3</ele>
        <time>2023-12-05T17:41:36Z</time>
      </trkpt>
      <trkpt lat="48.7279" lon="7.04672">
        <ele>252.4</ele>
        <time>2023-12-05T17:41:38Z</time>
      </trkpt>
      <trkpt lat="48.72799" lon="7.04667">
        <ele>252.4</ele>
        <time>2023-12-05T17:41:40Z</time>
      </trkpt>
      <trkpt lat="48.72807" lon="7.0466">
        <ele>252.4</ele>
        <time>2023-12-05T17:41:42Z</time>
      </trkpt>
      <trkpt lat="48.72819" lon="7.04637">
        <ele>252.5</ele>
        <time>2023-12-05T17:41:46Z</time>
      </trkpt>
      <trkpt lat="48.7283" lon="7.04614">
        <ele>252.6</ele>
        <time>2023-12-05T17:41:50Z</time>
      </trkpt>
      <trkpt lat="48.72841" lon="7.04589">
        <ele>252.7</ele>
        <time>2023-12-05T17:41:54Z</time>
      </trkpt>
      <trkpt lat="48.72852" lon="7.04563">
        <ele>252.8</ele>
        <time>2023-12-05T17:41:58Z</time>
      </trkpt>
      <trkpt lat="48.72856" lon="7.04551">
        <ele>252.9</ele>
        <time>2023-12-05T17:42:00Z</time>
      </trkpt>
      <trkpt lat="48.72856" lon="7.04539">
        <ele>252.9</ele>
        <time>2023-12-05T17:42:02Z</time>
      </trkpt>
      <trkpt lat="48.72852" lon="7.04517">
        <ele>252.8</ele>
        <time>2023-12-05T17:42:05Z</time>
      </trkpt>
      <trkpt lat="48.72843" lon="7.04498">
        <ele>252.7</ele>
        <time>2023-12-05T17:42:08Z</time>
      </trkpt>
      <trkpt lat="48.72832" lon="7.04483">
        <ele>252.6</ele>
        <time>2023-12-05T17:42:11Z</time>
      </trkpt>
      <trkpt lat="48.72819" lon="7.04475">
        <ele>252.7</ele>
        <time>2023-12-05T17:42:14Z</time>
      </trkpt>
      <trkpt lat="48.72811" lon="7.04475">
        <ele>252.7</ele>
        <time>2023-12-05T17:42:16Z</time>
      </trkpt>
      <trkpt lat="48.72802" lon="7.04481">
        <ele>252.6</ele>
        <time>2023-12-05T17:42:18Z</time>
      </trkpt>
      <trkpt lat="48.72793" lon="7.04491">
        <ele>252.6</ele>
        <time>2023-12-05T17:42:20Z</time>
      </trkpt>
      <trkpt lat="48.72778" lon="7.04518">
        <ele>252.4</ele>
        <time>2023-12-05T17:42:24Z</time>
      </trkpt>
      <trkpt lat="48.72765" lon="7.04546">
        <ele>252.2</ele>
        <time>2023-12-05T17:42:28Z</time>
      </trkpt>
      <trkpt lat="48.72755" lon="7.04572">
        <ele>252.2</ele>
        <time>2023-12-05T17:42:32Z</time>
      </trkpt>
      <trkpt lat="48.72749" lon="7.04585">
        <ele>252.2</ele>
        <time>2023-12-05T17:42:34Z</time>
      </trkpt>
      <trkpt lat="48.72741" lon="7.046">
        <ele>252.2</ele>
        <time>2023-12-05T17:42:37Z</time>
      </trkpt>
      <trkpt lat="48.72733" lon="7.04601">
        <ele>252.2</ele>
        <time>2023-12-05T17:42:41Z</time>
      </trkpt>
      <trkpt lat="48.72743" lon="7.04579">
        <ele>252.2</ele>
        <time>2023-12-05T17:42:51Z</time>
      </trkpt>
      <trkpt lat="48.72755" lon="7.04557">
        <ele>252.2</ele>
        <time>2023-12-05T17:43:03Z</time>
      </trkpt>
      <trkpt lat="48.72761" lon="7.04546">
        <ele>252.2</ele>
        <time>2023-12-05T17:43:09Z</time>
      </trkpt>
      <trkpt lat="48.72752" lon="7.04571">
        <ele>252.2</ele>
        <time>2023-12-05T17:43:20Z</time>
      </trkpt>
      <trkpt lat="48.72741" lon="7.04592">
        <ele>252.2</ele>
        <time>2023-12-05T17:43:33Z</time>
      </trkpt>
      <trkpt lat="48.72741" lon="7.04588">
        <ele>252.2</ele>
        <time>2023-12-05T17:43:36Z</time>
      </trkpt>
      <trkpt lat="48.72742" lon="7.04585">
        <ele>252.2</ele>
        <time>2023-12-05T17:43:38Z</time>
      </trkpt>
      <trkpt lat="48.72744" lon="7.04581">
        <ele>252.2</ele>
        <time>2023-12-05T17:43:40Z</time>
      </trkpt>
      <trkpt lat="48.7275" lon="7.04568">
        <ele>252.2</ele>
        <time>2023-12-05T17:43:51Z</time>
      </trkpt>
      <trkpt lat="48.72749" lon="7.04577">
        <ele>252.2</ele>
        <time>2023-12-05T17:43:56Z</time>
      </trkpt>
      <trkpt lat="48.72747" lon="7.04584">
        <ele>252.2</ele>
        <time>2023-12-05T17:44:10Z</time>
      </trkpt>
      <trkpt lat="48.72747" lon="7.04584">
        <ele>252.2</ele>
        <time>2023-12-05T17:44:14Z</time>
      </trkpt>
      <trkpt lat="48.72741" lon="7.04609">
        <ele>252.2</ele>
        <time>2023-12-05T17:44:20Z</time>
      </trkpt>
      <trkpt lat="48.72745" lon="7.04638">
        <ele>252.2</ele>
        <time>2023-12-05T17:44:24Z</time>
      </trkpt>
      <trkpt lat="48.72758" lon="7.04658">
        <ele>252.2</ele>
        <time>2023-12-05T17:44:28Z</time>
      </trkpt>
      <trkpt lat="48.72774" lon="7.0467">
        <ele>252.3</ele>
        <time>2023-12-05T17:44:32Z</time>
      </trkpt>
      <trkpt lat="48.72793" lon="7.04673">
        <ele>252.4</ele>
        <time>2023-12-05T17:44:36Z</time>
      </trkpt>
      <trkpt lat="48.7281" lon="7.04663">
        <ele>252.4</ele>
        <time>2023-12-05T17:44:40Z</time>
      </trkpt>
      <trkpt lat="48.72822" lon="7.04642">
        <ele>252.5</ele>
        <time>2023-12-05T17:44:44Z</time>
      </trkpt>
      <trkpt lat="48.72835" lon="7.04616">
        <ele>252.7</ele>
        <time>2023-12-05T17:44:49Z</time>
      </trkpt>
      <trkpt lat="48.72846" lon="7.04594">
        <ele>252.7</ele>
        <time>2023-12-05T17:44:53Z</time>
      </trkpt>
      <trkpt lat="48.72858" lon="7.04567">
        <ele>252.8</ele>
        <time>2023-12-05T17:44:58Z</time>
      </trkpt>
      <trkpt lat="48.72861" lon="7.04555">
        <ele>252.9</ele>
        <time>2023-12-05T17:45:00Z</time>
      </trkpt>
      <trkpt lat="48.72862" lon="7.04543">
        <ele>252.9</ele>
        <time>2023-12-05T17:45:02Z</time>
      </trkpt>
      <trkpt lat="48.72863" lon="7.0453">
        <ele>252.8</ele>
        <time>2023-12-05T17:45:04Z</time>
      </trkpt>
      <trkpt lat="48.72861" lon="7.04517">
        <ele>252.8</ele>
        <time>2023-12-05T17:45:06Z</time>
      </trkpt>
      <trkpt lat="48.72856" lon="7.04505">
        <ele>252.7</ele>
        <time>2023-12-05T17:45:08Z</time>
      </trkpt>
      <trkpt lat="48.72844" lon="7.04485">
        <ele>252.6</ele>
        <time>2023-12-05T17:45:12Z</time>
      </trkpt>
      <trkpt lat="48.72837" lon="7.04479">
        <ele>252.6</ele>
        <time>2023-12-05T17:45:14Z</time>
      </trkpt>
      <trkpt lat="48.7282" lon="7.04472">
        <ele>252.7</ele>
        <time>2023-12-05T17:45:18Z</time>
      </trkpt>
      <trkpt lat="48.72812" lon="7.04474">
        <ele>252.6</ele>
        <time>2023-12-05T17:45:20Z</time>
      </trkpt>
      <trkpt lat="48.72803" lon="7.04479">
        <ele>252.6</ele>
        <time>2023-12-05T17:45:22Z</time>
      </trkpt>
      <trkpt lat="48.72794" lon="7.04489">
        <ele>252.5</ele>
        <time>2023-12-05T17:45:24Z</time>
      </trkpt>
      <trkpt lat="48.72782" lon="7.04513">
        <ele>252.4</ele>
        <time>2023-12-05T17:45:28Z</time>
      </trkpt>
      <trkpt lat="48.7277" lon="7.0454">
        <ele>252.2</ele>
        <time>2023-12-05T17:45:33Z</time>
      </trkpt>
      <trkpt lat="48.72757" lon="7.04566">
        <ele>252.2</ele>
        <time>2023-12-05T17:45:38Z</time>
      </trkpt>
      <trkpt lat="48.72744" lon="7.04587">
        <ele>252.2</ele>
        <time>2023-12-05T17:45:42Z</time>
      </trkpt>
      <trkpt lat="48.72739" lon="7.04598">
        <ele>252.2</ele>
        <time>2023-12-05T17:45:44Z</time>
      </trkpt>
      <trkpt lat="48.72734" lon="7.04624">
        <ele>252.2</ele>
        <time>2023-12-05T17:45:48Z</time>
      </trkpt>
      <trkpt lat="48.72737" lon="7.04636">
        <ele>252.2</ele>
        <time>2023-12-05T17:45:50Z</time>
      </trkpt>
      <trkpt lat="48.72743" lon="7.04646">
        <ele>252.2</ele>
        <time>2023-12-05T17:45:52Z</time>
      </trkpt>
      <trkpt lat="48.72754" lon="7.04659">
        <ele>252.2</ele>
        <time>2023-12-05T17:45:55Z</time>
      </trkpt>
      <trkpt lat="48.72761" lon="7.04664">
        <ele>252.3</ele>
        <time>2023-12-05T17:45:57Z</time>
      </trkpt>
      <trkpt lat="48.72774" lon="7.0467">
        <ele>252.3</ele>
        <time>2023-12-05T17:46:00Z</time>
      </trkpt>
      <trkpt lat="48.72783" lon="7.04671">
        <ele>252.4</ele>
        <time>2023-12-05T17:46:02Z</time>
      </trkpt>
      <trkpt lat="48.72796" lon="7.04666">
        <ele>252.4</ele>
        <time>2023-12-05T17:46:05Z</time>
      </trkpt>
      <trkpt lat="48.72805" lon="7.04659">
        <ele>252.4</ele>
        <time>2023-12-05T17:46:07Z</time>
      </trkpt>
      <trkpt lat="48.72812" lon="7.0465">
        <ele>252.5</ele>
        <time>2023-12-05T17:46:09Z</time>
      </trkpt>
      <trkpt lat="48.72827" lon="7.04625">
        <ele>252.6</ele>
        <time>2023-12-05T17:46:14Z</time>
      </trkpt>
      <trkpt lat="48.72835" lon="7.04609">
        <ele>252.7</ele>
        <time>2023-12-05T17:46:17Z</time>
      </trkpt>
      <trkpt lat="48.72847" lon="7.04582">
        <ele>252.8</ele>
        <time>2023-12-05T17:46:22Z</time>
      </trkpt>
      <trkpt lat="48.72852" lon="7.04572">
        <ele>252.8</ele>
        <time>2023-12-05T17:46:24Z</time>
      </trkpt>
      <trkpt lat="48.72858" lon="7.04556">
        <ele>252.9</ele>
        <time>2023-12-05T17:46:27Z</time>
      </trkpt>
      <trkpt lat="48.7286" lon="7.04537">
        <ele>252.9</ele>
        <time>2023-12-05T17:46:30Z</time>
      </trkpt>
      <trkpt lat="48.72858" lon="7.0451">
        <ele>252.8</ele>
        <time>2023-12-05T17:46:34Z</time>
      </trkpt>
      <trkpt lat="48.72846" lon="7.04483">
        <ele>252.6</ele>
        <time>2023-12-05T17:46:39Z</time>
      </trkpt>
      <trkpt lat="48.72843" lon="7.04479">
        <ele>252.6</ele>
        <time>2023-12-05T17:46:40Z</time>
      </trkpt>
      <trkpt lat="48.72833" lon="7.0447">
        <ele>252.6</ele>
        <time>2023-12-05T17:46:43Z</time>
      </trkpt>
      <trkpt lat="48.72827" lon="7.04468">
        <ele>252.7</ele>
        <time>2023-12-05T17:46:45Z</time>
      </trkpt>
      <trkpt lat="48.72818" lon="7.0447">
        <ele>252.7</ele>
        <time>2023-12-05T17:46:47Z</time>
      </trkpt>
      <trkpt lat="48.72808" lon="7.04476">
        <ele>252.6</ele>
        <time>2023-12-05T17:46:49Z</time>
      </trkpt>
      <trkpt lat="48.72793" lon="7.04498">
        <ele>252.5</ele>
        <time>2023-12-05T17:46:53Z</time>
      </trkpt>
      <trkpt lat="48.72781" lon="7.0452">
        <ele>252.4</ele>
        <time>2023-12-05T17:46:57Z</time>
      </trkpt>
      <trkpt lat="48.7277" lon="7.04542">
        <ele>252.2</ele>
        <time>2023-12-05T17:47:01Z</time>
      </trkpt>
      <trkpt lat="48.72757" lon="7.04565">
        <ele>252.2</ele>
        <time>2023-12-05T17:47:05Z</time>
      </trkpt>
      <trkpt lat="48.72747" lon="7.04587">
        <ele>252.2</ele>
        <time>2023-12-05T17:47:09Z</time>
      </trkpt>
      <trkpt lat="48.7274" lon="7.04604">
        <ele>252.2</ele>
        <time>2023-12-05T17:47:12Z</time>
      </trkpt>
      <trkpt lat="48.72739" lon="7.04617">
        <ele>252.2</ele>
        <time>2023-12-05T17:47:14Z</time>
      </trkpt>
      <trkpt lat="48.72741" lon="7.0463">
        <ele>252.2</ele>
        <time>2023-12-05T17:47:16Z</time>
      </trkpt>
      <trkpt lat="48.72748" lon="7.04646">
        <ele>252.2</ele>
        <time>2023-12-05T17:47:19Z</time>
      </trkpt>
      <trkpt lat="48.72762" lon="7.04663">
        <ele>252.2</ele>
        <time>2023-12-05T17:47:23Z</time>
      </trkpt>
      <trkpt lat="48.7277" lon="7.04669">
        <ele>252.3</ele>
        <time>2023-12-05T17:47:25Z</time>
      </trkpt>
      <trkpt lat="48.72779" lon="7.04673">
        <ele>252.3</ele>
        <time>2023-12-05T17:47:27Z</time>
      </trkpt>
      <trkpt lat="48.72788" lon="7.04674">
        <ele>252.4</ele>
        <time>2023-12-05T17:47:29Z</time>
      </trkpt>
      <trkpt lat="48.72797" lon="7.04671">
        <ele>252.4</ele>
        <time>2023-12-05T17:47:31Z</time>
      </trkpt>
      <trkpt lat="48.72809" lon="7.04661">
        <ele>252.4</ele>
        <time>2023-12-05T17:47:34Z</time>
      </trkpt>
      <trkpt lat="48.72823" lon="7.04636">
        <ele>252.6</ele>
        <time>2023-12-05T17:47:39Z</time>
      </trkpt>
      <trkpt lat="48.72836" lon="7.04609">
        <ele>252.7</ele>
        <time>2023-12-05T17:47:44Z</time>
      </trkpt>
      <trkpt lat="48.72847" lon="7.04583">
        <ele>252.8</ele>
        <time>2023-12-05T17:47:49Z</time>
      </trkpt>
      <trkpt lat="48.72859" lon="7.04555">
        <ele>252.9</ele>
        <time>2023-12-05T17:47:54Z</time>
      </trkpt>
      <trkpt lat="48.72859" lon="7.0455">
        <ele>252.9</ele>
        <time>2023-12-05T17:47:55Z</time>
      </trkpt>
      <trkpt lat="48.72861" lon="7.04537">
        <ele>252.9</ele>
        <time>2023-12-05T17:47:57Z</time>
      </trkpt>
      <trkpt lat="48.7286" lon="7.04524">
        <ele>252.8</ele>
        <time>2023-12-05T17:47:59Z</time>
      </trkpt>
      <trkpt lat="48.72857" lon="7.04512">
        <ele>252.8</ele>
        <time>2023-12-05T17:48:01Z</time>
      </trkpt>
      <trkpt lat="48.72844" lon="7.04486">
        <ele>252.6</ele>
        <time>2023-12-05T17:48:06Z</time>
      </trkpt>
      <trkpt lat="48.72841" lon="7.04482">
        <ele>252.6</ele>
        <time>2023-12-05T17:48:07Z</time>
      </trkpt>
      <trkpt lat="48.72834" lon="7.04476">
        <ele>252.6</ele>
        <time>2023-12-05T17:48:09Z</time>
      </trkpt>
      <trkpt lat="48.72821" lon="7.04473">
        <ele>252.7</ele>
        <time>2023-12-05T17:48:12Z</time>
      </trkpt>
      <trkpt lat="48.72809" lon="7.04476">
        <ele>252.6</ele>
        <time>2023-12-05T17:48:15Z</time>
      </trkpt>
      <trkpt lat="48.728" lon="7.04485">
        <ele>252.6</ele>
        <time>2023-12-05T17:48:17Z</time>
      </trkpt>
      <trkpt lat="48.72786" lon="7.04508">
        <ele>252.4</ele>
        <time>2023-12-05T17:48:21Z</time>
      </trkpt>
      <trkpt lat="48.72775" lon="7.0453">
        <ele>252.3</ele>
        <time>2023-12-05T17:48:25Z</time>
      </trkpt>
      <trkpt lat="48.72763" lon="7.04551">
        <ele>252.2</ele>
        <time>2023-12-05T17:48:29Z</time>
      </trkpt>
      <trkpt lat="48.72752" lon="7.04573">
        <ele>252.2</ele>
        <time>2023-12-05T17:48:33Z</time>
      </trkpt>
      <trkpt lat="48.72741" lon="7.04596">
        <ele>252.2</ele>
        <time>2023-12-05T17:48:37Z</time>
      </trkpt>
      <trkpt lat="48.72739" lon="7.04602">
        <ele>252.2</ele>
        <time>2023-12-05T17:48:38Z</time>
      </trkpt>
      <trkpt lat="48.72737" lon="7.04615">
        <ele>252.2</ele>
        <time>2023-12-05T17:48:40Z</time>
      </trkpt>
      <trkpt lat="48.72738" lon="7.04628">
        <ele>252.2</ele>
        <time>2023-12-05T17:48:42Z</time>
      </trkpt>
      <trkpt lat="48.72741" lon="7.0464">
        <ele>252.2</ele>
        <time>2023-12-05T17:48:44Z</time>
      </trkpt>
      <trkpt lat="48.72748" lon="7.04651">
        <ele>252.2</ele>
        <time>2023-12-05T17:48:46Z</time>
      </trkpt>
      <trkpt lat="48.72765" lon="7.0467">
        <ele>252.3</ele>
        <time>2023-12-05T17:48:51Z</time>
      </trkpt>
      <trkpt lat="48.72774" lon="7.04673">
        <ele>252.3</ele>
        <time>2023-12-05T17:48:53Z</time>
      </trkpt>
      <trkpt lat="48.72794" lon="7.04671">
        <ele>252.4</ele>
        <time>2023-12-05T17:48:57Z</time>
      </trkpt>
      <trkpt lat="48.72803" lon="7.04665">
        <ele>252.4</ele>
        <time>2023-12-05T17:48:59Z</time>
      </trkpt>
      <trkpt lat="48.72819" lon="7.04642">
        <ele>252.5</ele>
        <time>2023-12-05T17:49:04Z</time>
      </trkpt>
      <trkpt lat="48.7283" lon="7.0462">
        <ele>252.6</ele>
        <time>2023-12-05T17:49:08Z</time>
      </trkpt>
      <trkpt lat="48.72841" lon="7.04598">
        <ele>252.7</ele>
        <time>2023-12-05T17:49:12Z</time>
      </trkpt>
      <trkpt lat="48.72852" lon="7.04575">
        <ele>252.8</ele>
        <time>2023-12-05T17:49:16Z</time>
      </trkpt>
      <trkpt lat="48.72856" lon="7.04563">
        <ele>252.9</ele>
        <time>2023-12-05T17:49:18Z</time>
      </trkpt>
      <trkpt lat="48.7286" lon="7.04551">
        <ele>252.9</ele>
        <time>2023-12-05T17:49:20Z</time>
      </trkpt>
      <trkpt lat="48.72861" lon="7.04531">
        <ele>252.8</ele>
        <time>2023-12-05T17:49:23Z</time>
      </trkpt>
      <trkpt lat="48.72859" lon="7.04518">
        <ele>252.8</ele>
        <time>2023-12-05T17:49:25Z</time>
      </trkpt>
      <trkpt lat="48.72853" lon="7.04499">
        <ele>252.7</ele>
        <time>2023-12-05T17:49:28Z</time>
      </trkpt>
      <trkpt lat="48.7284" lon="7.04478">
        <ele>252.6</ele>
        <time>2023-12-05T17:49:32Z</time>
      </trkpt>
      <trkpt lat="48.72832" lon="7.04472">
        <ele>252.6</ele>
        <time>2023-12-05T17:49:34Z</time>
      </trkpt>
      <trkpt lat="48.72823" lon="7.0447">
        <ele>252.7</ele>
        <time>2023-12-05T17:49:36Z</time>
      </trkpt>
      <trkpt lat="48.72813" lon="7.04471">
        <ele>252.7</ele>
        <time>2023-12-05T17:49:38Z</time>
      </trkpt>
      <trkpt lat="48.72805" lon="7.04475">
        <ele>252.6</ele>
        <time>2023-12-05T17:49:40Z</time>
      </trkpt>
      <trkpt lat="48.72793" lon="7.04489">
        <ele>252.5</ele>
        <time>2023-12-05T17:49:43Z</time>
      </trkpt>
      <trkpt lat="48.72781" lon="7.04515">
        <ele>252.4</ele>
        <time>2023-12-05T17:49:47Z</time>
      </trkpt>
      <trkpt lat="48.72768" lon="7.04542">
        <ele>252.2</ele>
        <time>2023-12-05T17:49:51Z</time>
      </trkpt>
      <trkpt lat="48.72755" lon="7.04568">
        <ele>252.2</ele>
        <time>2023-12-05T17:49:55Z</time>
      </trkpt>
      <trkpt lat="48.7275" lon="7.0458">
        <ele>252.2</ele>
        <time>2023-12-05T17:49:57Z</time>
      </trkpt>
      <trkpt lat="48.72739" lon="7.04595">
        <ele>252.2</ele>
        <time>2023-12-05T17:50:04Z</time>
      </trkpt>
      <trkpt lat="48.72749" lon="7.04571">
        <ele>252.2</ele>
        <time>2023-12-05T17:50:15Z</time>
      </trkpt>
      <trkpt lat="48.72759" lon="7.04547">
        <ele>252.2</ele>
        <time>2023-12-05T17:50:29Z</time>
      </trkpt>
      <trkpt lat="48.72759" lon="7.04545">
        <ele>252.2</ele>
        <time>2023-12-05T17:50:30Z</time>
      </trkpt>
      <trkpt lat="48.72763" lon="7.04537">
        <ele>252.2</ele>
        <time>2023-12-05T17:50:34Z</time>
      </trkpt>
      <trkpt lat="48.72765" lon="7.04523">
        <ele>252.3</ele>
        <time>2023-12-05T17:51:21Z</time>
      </trkpt>
      <trkpt lat="48.72767" lon="7.04519">
        <ele>252.3</ele>
        <time>2023-12-05T17:51:23Z</time>
      </trkpt>
      <trkpt lat="48.7278" lon="7.04498">
        <ele>252.5</ele>
        <time>2023-12-05T17:51:35Z</time>
      </trkpt>
      <trkpt lat="48.72793" lon="7.04478">
        <ele>252.6</ele>
        <time>2023-12-05T17:51:45Z</time>
      </trkpt>
      <trkpt lat="48.7281" lon="7.04465">
        <ele>252.7</ele>
        <time>2023-12-05T17:51:56Z</time>
      </trkpt>
      <trkpt lat="48.72829" lon="7.0447">
        <ele>252.6</ele>
        <time>2023-12-05T17:52:06Z</time>
      </trkpt>
      <trkpt lat="48.72845" lon="7.04486">
        <ele>252.7</ele>
        <time>2023-12-05T17:52:16Z</time>
      </trkpt>
      <trkpt lat="48.72852" lon="7.0451">
        <ele>252.8</ele>
        <time>2023-12-05T17:52:25Z</time>
      </trkpt>
      <trkpt lat="48.72856" lon="7.04539">
        <ele>252.9</ele>
        <time>2023-12-05T17:52:34Z</time>
      </trkpt>
      <trkpt lat="48.72852" lon="7.04567">
        <ele>252.8</ele>
        <time>2023-12-05T17:52:43Z</time>
      </trkpt>
      <trkpt lat="48.72841" lon="7.04591">
        <ele>252.7</ele>
        <time>2023-12-05T17:52:52Z</time>
      </trkpt>
      <trkpt lat="48.72832" lon="7.04617">
        <ele>252.6</ele>
        <time>2023-12-05T17:53:02Z</time>
      </trkpt>
      <trkpt lat="48.72821" lon="7.0464">
        <ele>252.6</ele>
        <time>2023-12-05T17:53:10Z</time>
      </trkpt>
      <trkpt lat="48.72809" lon="7.04661">
        <ele>252.4</ele>
        <time>2023-12-05T17:53:18Z</time>
      </trkpt>
      <trkpt lat="48.72793" lon="7.04675">
        <ele>252.4</ele>
        <time>2023-12-05T17:53:28Z</time>
      </trkpt>
      <trkpt lat="48.72773" lon="7.04674">
        <ele>252.3</ele>
        <time>2023-12-05T17:53:37Z</time>
      </trkpt>
      <trkpt lat="48.72757" lon="7.04661">
        <ele>252.2</ele>
        <time>2023-12-05T17:53:44Z</time>
      </trkpt>
      <trkpt lat="48.72741" lon="7.04642">
        <ele>252.2</ele>
        <time>2023-12-05T17:53:52Z</time>
      </trkpt>
      <trkpt lat="48.72734" lon="7.04617">
        <ele>252.2</ele>
        <time>2023-12-05T17:54:00Z</time>
      </trkpt>
      <trkpt lat="48.7274" lon="7.04589">
        <ele>252.2</ele>
        <time>2023-12-05T17:54:08Z</time>
      </trkpt>
      <trkpt lat="48.7275" lon="7.04565">
        <ele>252.2</ele>
        <time>2023-12-05T17:54:16Z</time>
      </trkpt>
      <trkpt lat="48.7276" lon="7.04542">
        <ele>252.2</ele>
        <time>2023-12-05T17:54:25Z</time>
      </trkpt>
      <trkpt lat="48.72771" lon="7.04519">
        <ele>252.3</ele>
        <time>2023-12-05T17:54:34Z</time>
      </trkpt>
      <trkpt lat="48.72782" lon="7.04497">
        <ele>252.4</ele>
        <time>2023-12-05T17:54:42Z</time>
      </trkpt>
      <trkpt lat="48.72793" lon="7.04474">
        <ele>252.6</ele>
        <time>2023-12-05T17:54:51Z</time>
      </trkpt>
      <trkpt lat="48.7281" lon="7.04463">
        <ele>252.7</ele>
        <time>2023-12-05T17:55:01Z</time>
      </trkpt>
      <trkpt lat="48.72828" lon="7.04471">
        <ele>252.6</ele>
        <time>2023-12-05T17:55:10Z</time>
      </trkpt>
      <trkpt lat="48.72843" lon="7.04486">
        <ele>252.6</ele>
        <time>2023-12-05T17:55:18Z</time>
      </trkpt>
      <trkpt lat="48.7285" lon="7.04512">
        <ele>252.8</ele>
        <time>2023-12-05T17:55:28Z</time>
      </trkpt>
      <trkpt lat="48.7286" lon="7.04539">
        <ele>252.9</ele>
        <time>2023-12-05T17:55:35Z</time>
      </trkpt>
      <trkpt lat="48.72857" lon="7.04566">
        <ele>252.8</ele>
        <time>2023-12-05T17:55:44Z</time>
      </trkpt>
      <trkpt lat="48.72846" lon="7.04591">
        <ele>252.7</ele>
        <time>2023-12-05T17:55:54Z</time>
      </trkpt>
      <trkpt lat="48.72834" lon="7.04613">
        <ele>252.7</ele>
        <time>2023-12-05T17:56:03Z</time>
      </trkpt>
      <trkpt lat="48.72823" lon="7.04635">
        <ele>252.6</ele>
        <time>2023-12-05T17:56:11Z</time>
      </trkpt>
      <trkpt lat="48.72811" lon="7.04656">
        <ele>252.4</ele>
        <time>2023-12-05T17:56:19Z</time>
      </trkpt>
      <trkpt lat="48.72795" lon="7.04673">
        <ele>252.4</ele>
        <time>2023-12-05T17:56:28Z</time>
      </trkpt>
      <trkpt lat="48.72776" lon="7.04673">
        <ele>252.3</ele>
        <time>2023-12-05T17:56:37Z</time>
      </trkpt>
      <trkpt lat="48.72758" lon="7.04661">
        <ele>252.3</ele>
        <time>2023-12-05T17:56:45Z</time>
      </trkpt>
      <trkpt lat="48.72744" lon="7.04642">
        <ele>252.2</ele>
        <time>2023-12-05T17:56:53Z</time>
      </trkpt>
      <trkpt lat="48.72736" lon="7.04616">
        <ele>252.2</ele>
        <time>2023-12-05T17:57:01Z</time>
      </trkpt>
      <trkpt lat="48.7274" lon="7.04586">
        <ele>252.2</ele>
        <time>2023-12-05T17:57:09Z</time>
      </trkpt>
      <trkpt lat="48.72749" lon="7.04562">
        <ele>252.2</ele>
        <time>2023-12-05T17:57:17Z</time>
      </trkpt>
      <trkpt lat="48.72761" lon="7.0454">
        <ele>252.2</ele>
        <time>2023-12-05T17:57:25Z</time>
      </trkpt>
      <trkpt lat="48.72774" lon="7.04517">
        <ele>252.3</ele>
        <time>2023-12-05T17:57:33Z</time>
      </trkpt>
      <trkpt lat="48.72786" lon="7.04495">
        <ele>252.5</ele>
        <time>2023-12-05T17:57:41Z</time>
      </trkpt>
      <trkpt lat="48.72797" lon="7.04472">
        <ele>252.6</ele>
        <time>2023-12-05T17:57:50Z</time>
      </trkpt>
      <trkpt lat="48.72816" lon="7.04463">
        <ele>252.7</ele>
        <time>2023-12-05T17:58:00Z</time>
      </trkpt>
      <trkpt lat="48.72834" lon="7.04472">
        <ele>252.6</ele>
        <time>2023-12-05T17:58:09Z</time>
      </trkpt>
      <trkpt lat="48.72849" lon="7.04489">
        <ele>252.7</ele>
        <time>2023-12-05T17:58:17Z</time>
      </trkpt>
      <trkpt lat="48.72858" lon="7.04516">
        <ele>252.8</ele>
        <time>2023-12-05T17:58:26Z</time>
      </trkpt>
      <trkpt lat="48.72862" lon="7.04543">
        <ele>252.9</ele>
        <time>2023-12-05T17:58:33Z</time>
      </trkpt>
      <trkpt lat="48.72854" lon="7.04567">
        <ele>252.8</ele>
        <time>2023-12-05T17:58:41Z</time>
      </trkpt>
      <trkpt lat="48.72844" lon="7.04594">
        <ele>252.7</ele>
        <time>2023-12-05T17:58:50Z</time>
      </trkpt>
      <trkpt lat="48.72832" lon="7.04617">
        <ele>252.6</ele>
        <time>2023-12-05T17:58:58Z</time>
      </trkpt>
      <trkpt lat="48.72821" lon="7.0464">
        <ele>252.6</ele>
        <time>2023-12-05T17:59:06Z</time>
      </trkpt>
      <trkpt lat="48.7281" lon="7.04661">
        <ele>252.4</ele>
        <time>2023-12-05T17:59:14Z</time>
      </trkpt>
      <trkpt lat="48.72793" lon="7.04674">
        <ele>252.4</ele>
        <time>2023-12-05T17:59:24Z</time>
      </trkpt>
      <trkpt lat="48.72773" lon="7.04674">
        <ele>252.3</ele>
        <time>2023-12-05T17:59:32Z</time>
      </trkpt>
      <trkpt lat="48.72754" lon="7.04661">
        <ele>252.2</ele>
        <time>2023-12-05T17:59:40Z</time>
      </trkpt>
      <trkpt lat="48.72742" lon="7.0464">
        <ele>252.2</ele>
        <time>2023-12-05T17:59:48Z</time>
      </trkpt>
      <trkpt lat="48.72736" lon="7.04612">
        <ele>252.2</ele>
        <time>2023-12-05T17:59:56Z</time>
      </trkpt>
      <trkpt lat="48.72742" lon="7.04584">
        <ele>252.2</ele>
        <time>2023-12-05T18:00:04Z</time>
      </trkpt>
      <trkpt lat="48.72754" lon="7.04559">
        <ele>252.2</ele>
        <time>2023-12-05T18:00:12Z</time>
      </trkpt>
      <trkpt lat="48.72761" lon="7.04544">
        <ele>252.2</ele>
        <time>2023-12-05T18:00:18Z</time>
      </trkpt>
    </trkseg>
  </trk>
</gpx>